<?xml version="1.0" encoding="UTF-8" standalone="no" ?>
<gpx xmlns="http://www.topografix.com/GPX/1/1" xmlns:xsi="http://www.w3.org/2001/XMLSchema-instance" xsi:schemaLocation="http://www.topografix.com/GPX/1/1 http://www.topografix.com/GPX/1/1/gpx.xsd" version="1.1" creator="VisuGPX - https://www.visugpx.com">
  <metadata>
    <name>St Cirq (Colayrac St Cirq)</name>
  </metadata>
  <trk>
    <name><![CDATA[Pierre_NARFIT_2026-01-04_14-11-40]]></name>
    <extensions>
      <line xmlns="http://www.topografix.com/GPX/gpx_style/0/2">
        <color>0000FF</color>
        <width>4</width>
      </line>
    </extensions>
    <trkseg>
      <trkpt lat="44.23398" lon="0.56484">
        <ele>44</ele>
        <time>2026-01-04T13:12:47.337Z</time>
      </trkpt>
      <trkpt lat="44.23392" lon="0.56487">
        <ele>43.7</ele>
        <time>2026-01-04T13:12:55.337Z</time>
      </trkpt>
      <trkpt lat="44.23385" lon="0.56487">
        <ele>43.3</ele>
        <time>2026-01-04T13:13:01.337Z</time>
      </trkpt>
      <trkpt lat="44.23378" lon="0.56486">
        <ele>43.1</ele>
        <time>2026-01-04T13:13:33.337Z</time>
      </trkpt>
      <trkpt lat="44.23374" lon="0.56488">
        <ele>43</ele>
        <time>2026-01-04T13:13:36.337Z</time>
      </trkpt>
      <trkpt lat="44.23365" lon="0.56484">
        <ele>42.6</ele>
        <time>2026-01-04T13:13:44.337Z</time>
      </trkpt>
      <trkpt lat="44.23353" lon="0.56483">
        <ele>42.5</ele>
        <time>2026-01-04T13:13:56.337Z</time>
      </trkpt>
      <trkpt lat="44.23349" lon="0.56482">
        <ele>42.5</ele>
        <time>2026-01-04T13:14:00.337Z</time>
      </trkpt>
      <trkpt lat="44.23314" lon="0.56482">
        <ele>42.7</ele>
        <time>2026-01-04T13:14:32.337Z</time>
      </trkpt>
      <trkpt lat="44.23305" lon="0.56482">
        <ele>42.6</ele>
        <time>2026-01-04T13:14:40.337Z</time>
      </trkpt>
      <trkpt lat="44.23285" lon="0.56487">
        <ele>41.8</ele>
        <time>2026-01-04T13:14:56.337Z</time>
      </trkpt>
      <trkpt lat="44.23276" lon="0.56489">
        <ele>41.6</ele>
        <time>2026-01-04T13:15:04.337Z</time>
      </trkpt>
      <trkpt lat="44.23272" lon="0.56488">
        <ele>41.5</ele>
        <time>2026-01-04T13:15:08.337Z</time>
      </trkpt>
      <trkpt lat="44.23243" lon="0.56498">
        <ele>41.6</ele>
        <time>2026-01-04T13:15:32.337Z</time>
      </trkpt>
      <trkpt lat="44.23225" lon="0.56507">
        <ele>41.1</ele>
        <time>2026-01-04T13:15:48.337Z</time>
      </trkpt>
      <trkpt lat="44.23152" lon="0.56525">
        <ele>42</ele>
        <time>2026-01-04T13:16:48.337Z</time>
      </trkpt>
      <trkpt lat="44.23132" lon="0.56528">
        <ele>41.7</ele>
        <time>2026-01-04T13:17:04.337Z</time>
      </trkpt>
      <trkpt lat="44.23127" lon="0.56528">
        <ele>41.6</ele>
        <time>2026-01-04T13:17:08.337Z</time>
      </trkpt>
      <trkpt lat="44.23122" lon="0.56529">
        <ele>41.4</ele>
        <time>2026-01-04T13:17:12.337Z</time>
      </trkpt>
      <trkpt lat="44.23118" lon="0.56529">
        <ele>41.2</ele>
        <time>2026-01-04T13:17:16.337Z</time>
      </trkpt>
      <trkpt lat="44.23113" lon="0.5653">
        <ele>41.1</ele>
        <time>2026-01-04T13:17:20.337Z</time>
      </trkpt>
      <trkpt lat="44.23104" lon="0.5653">
        <ele>41</ele>
        <time>2026-01-04T13:17:28.337Z</time>
      </trkpt>
      <trkpt lat="44.231" lon="0.56531">
        <ele>41</ele>
        <time>2026-01-04T13:17:32.337Z</time>
      </trkpt>
      <trkpt lat="44.23098" lon="0.5653">
        <ele>41</ele>
        <time>2026-01-04T13:17:34.337Z</time>
      </trkpt>
      <trkpt lat="44.23067" lon="0.56534">
        <ele>41</ele>
        <time>2026-01-04T13:17:58.337Z</time>
      </trkpt>
      <trkpt lat="44.23063" lon="0.56533">
        <ele>41</ele>
        <time>2026-01-04T13:18:02.337Z</time>
      </trkpt>
      <trkpt lat="44.23037" lon="0.56538">
        <ele>41.2</ele>
        <time>2026-01-04T13:18:22.337Z</time>
      </trkpt>
      <trkpt lat="44.23018" lon="0.56535">
        <ele>41.2</ele>
        <time>2026-01-04T13:18:38.337Z</time>
      </trkpt>
      <trkpt lat="44.22978" lon="0.5653">
        <ele>41.1</ele>
        <time>2026-01-04T13:19:10.337Z</time>
      </trkpt>
      <trkpt lat="44.22958" lon="0.56525">
        <ele>41.6</ele>
        <time>2026-01-04T13:19:26.337Z</time>
      </trkpt>
      <trkpt lat="44.22939" lon="0.56523">
        <ele>42</ele>
        <time>2026-01-04T13:19:42.337Z</time>
      </trkpt>
      <trkpt lat="44.22926" lon="0.56519">
        <ele>42</ele>
        <time>2026-01-04T13:19:52.337Z</time>
      </trkpt>
      <trkpt lat="44.22925" lon="0.56517">
        <ele>42</ele>
        <time>2026-01-04T13:19:54.337Z</time>
      </trkpt>
      <trkpt lat="44.22919" lon="0.56515">
        <ele>42</ele>
        <time>2026-01-04T13:19:58.337Z</time>
      </trkpt>
      <trkpt lat="44.22914" lon="0.56512">
        <ele>42</ele>
        <time>2026-01-04T13:20:02.337Z</time>
      </trkpt>
      <trkpt lat="44.22905" lon="0.5651">
        <ele>42</ele>
        <time>2026-01-04T13:20:10.337Z</time>
      </trkpt>
      <trkpt lat="44.22901" lon="0.56507">
        <ele>42</ele>
        <time>2026-01-04T13:20:18.337Z</time>
      </trkpt>
      <trkpt lat="44.22899" lon="0.56507">
        <ele>42</ele>
        <time>2026-01-04T13:20:30.337Z</time>
      </trkpt>
      <trkpt lat="44.22895" lon="0.56507">
        <ele>42</ele>
        <time>2026-01-04T13:20:38.337Z</time>
      </trkpt>
      <trkpt lat="44.22886" lon="0.56505">
        <ele>42</ele>
        <time>2026-01-04T13:20:50.337Z</time>
      </trkpt>
      <trkpt lat="44.22883" lon="0.56505">
        <ele>42</ele>
        <time>2026-01-04T13:20:54.337Z</time>
      </trkpt>
      <trkpt lat="44.22879" lon="0.56504">
        <ele>42</ele>
        <time>2026-01-04T13:20:57.337Z</time>
      </trkpt>
      <trkpt lat="44.22875" lon="0.56503">
        <ele>42</ele>
        <time>2026-01-04T13:21:01.337Z</time>
      </trkpt>
      <trkpt lat="44.2287" lon="0.56504">
        <ele>42</ele>
        <time>2026-01-04T13:21:05.337Z</time>
      </trkpt>
      <trkpt lat="44.2286" lon="0.56508">
        <ele>42</ele>
        <time>2026-01-04T13:21:13.337Z</time>
      </trkpt>
      <trkpt lat="44.22852" lon="0.56513">
        <ele>42</ele>
        <time>2026-01-04T13:21:21.337Z</time>
      </trkpt>
      <trkpt lat="44.22843" lon="0.56519">
        <ele>42</ele>
        <time>2026-01-04T13:21:29.337Z</time>
      </trkpt>
      <trkpt lat="44.22834" lon="0.56527">
        <ele>42</ele>
        <time>2026-01-04T13:21:36.337Z</time>
      </trkpt>
      <trkpt lat="44.2283" lon="0.56538">
        <ele>42.1</ele>
        <time>2026-01-04T13:21:42.337Z</time>
      </trkpt>
      <trkpt lat="44.22823" lon="0.56545">
        <ele>42.4</ele>
        <time>2026-01-04T13:21:50.337Z</time>
      </trkpt>
      <trkpt lat="44.22805" lon="0.56566">
        <ele>43</ele>
        <time>2026-01-04T13:22:10.337Z</time>
      </trkpt>
      <trkpt lat="44.228" lon="0.56575">
        <ele>43</ele>
        <time>2026-01-04T13:22:18.337Z</time>
      </trkpt>
      <trkpt lat="44.22798" lon="0.56584">
        <ele>43</ele>
        <time>2026-01-04T13:22:24.337Z</time>
      </trkpt>
      <trkpt lat="44.22776" lon="0.56613">
        <ele>43</ele>
        <time>2026-01-04T13:22:52.337Z</time>
      </trkpt>
      <trkpt lat="44.22773" lon="0.56616">
        <ele>43</ele>
        <time>2026-01-04T13:22:56.337Z</time>
      </trkpt>
      <trkpt lat="44.22751" lon="0.56655">
        <ele>43</ele>
        <time>2026-01-04T13:23:28.337Z</time>
      </trkpt>
      <trkpt lat="44.22731" lon="0.56686">
        <ele>42.8</ele>
        <time>2026-01-04T13:23:54.337Z</time>
      </trkpt>
      <trkpt lat="44.22724" lon="0.56698">
        <ele>42.8</ele>
        <time>2026-01-04T13:24:04.337Z</time>
      </trkpt>
      <trkpt lat="44.22719" lon="0.56708">
        <ele>42.4</ele>
        <time>2026-01-04T13:24:12.337Z</time>
      </trkpt>
      <trkpt lat="44.2272" lon="0.5672">
        <ele>42.1</ele>
        <time>2026-01-04T13:24:20.337Z</time>
      </trkpt>
      <trkpt lat="44.22723" lon="0.56723">
        <ele>42</ele>
        <time>2026-01-04T13:24:24.337Z</time>
      </trkpt>
      <trkpt lat="44.22758" lon="0.56728">
        <ele>42</ele>
        <time>2026-01-04T13:24:56.337Z</time>
      </trkpt>
      <trkpt lat="44.22796" lon="0.56734">
        <ele>42</ele>
        <time>2026-01-04T13:25:28.337Z</time>
      </trkpt>
      <trkpt lat="44.22801" lon="0.56737">
        <ele>42</ele>
        <time>2026-01-04T13:25:34.337Z</time>
      </trkpt>
      <trkpt lat="44.22805" lon="0.56736">
        <ele>42</ele>
        <time>2026-01-04T13:25:38.337Z</time>
      </trkpt>
      <trkpt lat="44.22815" lon="0.56739">
        <ele>42</ele>
        <time>2026-01-04T13:25:46.337Z</time>
      </trkpt>
      <trkpt lat="44.22855" lon="0.56747">
        <ele>42</ele>
        <time>2026-01-04T13:26:18.337Z</time>
      </trkpt>
      <trkpt lat="44.22888" lon="0.56754">
        <ele>42</ele>
        <time>2026-01-04T13:26:46.337Z</time>
      </trkpt>
      <trkpt lat="44.22919" lon="0.56764">
        <ele>42</ele>
        <time>2026-01-04T13:27:10.337Z</time>
      </trkpt>
      <trkpt lat="44.22927" lon="0.56765">
        <ele>42</ele>
        <time>2026-01-04T13:27:18.337Z</time>
      </trkpt>
      <trkpt lat="44.22937" lon="0.56769">
        <ele>42</ele>
        <time>2026-01-04T13:27:26.337Z</time>
      </trkpt>
      <trkpt lat="44.22976" lon="0.56777">
        <ele>42</ele>
        <time>2026-01-04T13:27:58.337Z</time>
      </trkpt>
      <trkpt lat="44.22996" lon="0.56783">
        <ele>42</ele>
        <time>2026-01-04T13:28:14.337Z</time>
      </trkpt>
      <trkpt lat="44.23014" lon="0.56789">
        <ele>42</ele>
        <time>2026-01-04T13:28:30.337Z</time>
      </trkpt>
      <trkpt lat="44.23019" lon="0.56789">
        <ele>42</ele>
        <time>2026-01-04T13:28:34.337Z</time>
      </trkpt>
      <trkpt lat="44.23034" lon="0.56796">
        <ele>41.9</ele>
        <time>2026-01-04T13:28:48.337Z</time>
      </trkpt>
      <trkpt lat="44.23042" lon="0.56798">
        <ele>41.9</ele>
        <time>2026-01-04T13:28:54.337Z</time>
      </trkpt>
      <trkpt lat="44.2306" lon="0.56806">
        <ele>42</ele>
        <time>2026-01-04T13:29:10.337Z</time>
      </trkpt>
      <trkpt lat="44.23065" lon="0.56809">
        <ele>42</ele>
        <time>2026-01-04T13:29:14.337Z</time>
      </trkpt>
      <trkpt lat="44.23074" lon="0.56813">
        <ele>42</ele>
        <time>2026-01-04T13:29:22.337Z</time>
      </trkpt>
      <trkpt lat="44.23083" lon="0.56814">
        <ele>42</ele>
        <time>2026-01-04T13:29:30.337Z</time>
      </trkpt>
      <trkpt lat="44.23132" lon="0.56834">
        <ele>41</ele>
        <time>2026-01-04T13:30:10.337Z</time>
      </trkpt>
      <trkpt lat="44.23169" lon="0.56854">
        <ele>41.7</ele>
        <time>2026-01-04T13:30:42.337Z</time>
      </trkpt>
      <trkpt lat="44.23173" lon="0.56855">
        <ele>41.8</ele>
        <time>2026-01-04T13:30:46.337Z</time>
      </trkpt>
      <trkpt lat="44.23182" lon="0.56855">
        <ele>41.8</ele>
        <time>2026-01-04T13:30:54.337Z</time>
      </trkpt>
      <trkpt lat="44.23189" lon="0.56857">
        <ele>41.8</ele>
        <time>2026-01-04T13:31:00.337Z</time>
      </trkpt>
      <trkpt lat="44.23191" lon="0.56856">
        <ele>41.8</ele>
        <time>2026-01-04T13:31:02.337Z</time>
      </trkpt>
      <trkpt lat="44.23207" lon="0.56868">
        <ele>41.7</ele>
        <time>2026-01-04T13:31:18.337Z</time>
      </trkpt>
      <trkpt lat="44.23229" lon="0.56888">
        <ele>42</ele>
        <time>2026-01-04T13:31:38.337Z</time>
      </trkpt>
      <trkpt lat="44.23234" lon="0.56894">
        <ele>42</ele>
        <time>2026-01-04T13:31:44.337Z</time>
      </trkpt>
      <trkpt lat="44.23238" lon="0.56895">
        <ele>42</ele>
        <time>2026-01-04T13:31:48.337Z</time>
      </trkpt>
      <trkpt lat="44.23241" lon="0.56897">
        <ele>42</ele>
        <time>2026-01-04T13:31:50.337Z</time>
      </trkpt>
      <trkpt lat="44.23245" lon="0.56901">
        <ele>42</ele>
        <time>2026-01-04T13:31:54.337Z</time>
      </trkpt>
      <trkpt lat="44.23283" lon="0.56921">
        <ele>43.1</ele>
        <time>2026-01-04T13:32:26.337Z</time>
      </trkpt>
      <trkpt lat="44.23302" lon="0.56929">
        <ele>44.2</ele>
        <time>2026-01-04T13:32:42.337Z</time>
      </trkpt>
      <trkpt lat="44.23311" lon="0.56936">
        <ele>45.2</ele>
        <time>2026-01-04T13:32:50.337Z</time>
      </trkpt>
      <trkpt lat="44.23324" lon="0.56958">
        <ele>46.5</ele>
        <time>2026-01-04T13:33:06.337Z</time>
      </trkpt>
      <trkpt lat="44.23328" lon="0.5697">
        <ele>47.1</ele>
        <time>2026-01-04T13:33:14.337Z</time>
      </trkpt>
      <trkpt lat="44.23343" lon="0.57005">
        <ele>51.3</ele>
        <time>2026-01-04T13:33:38.337Z</time>
      </trkpt>
      <trkpt lat="44.23348" lon="0.57023">
        <ele>53.1</ele>
        <time>2026-01-04T13:33:50.337Z</time>
      </trkpt>
      <trkpt lat="44.23349" lon="0.57035">
        <ele>53.5</ele>
        <time>2026-01-04T13:33:58.337Z</time>
      </trkpt>
      <trkpt lat="44.23353" lon="0.57048">
        <ele>55.1</ele>
        <time>2026-01-04T13:34:08.337Z</time>
      </trkpt>
      <trkpt lat="44.23362" lon="0.57095">
        <ele>58.5</ele>
        <time>2026-01-04T13:34:40.337Z</time>
      </trkpt>
      <trkpt lat="44.23362" lon="0.57098">
        <ele>58.8</ele>
        <time>2026-01-04T13:34:42.337Z</time>
      </trkpt>
      <trkpt lat="44.23364" lon="0.5711">
        <ele>60.9</ele>
        <time>2026-01-04T13:34:50.337Z</time>
      </trkpt>
      <trkpt lat="44.23364" lon="0.57115">
        <ele>61.3</ele>
        <time>2026-01-04T13:34:54.337Z</time>
      </trkpt>
      <trkpt lat="44.23369" lon="0.57129">
        <ele>63.3</ele>
        <time>2026-01-04T13:35:06.337Z</time>
      </trkpt>
      <trkpt lat="44.23373" lon="0.57144">
        <ele>64.5</ele>
        <time>2026-01-04T13:39:26.337Z</time>
      </trkpt>
      <trkpt lat="44.23378" lon="0.57174">
        <ele>65.6</ele>
        <time>2026-01-04T13:39:46.337Z</time>
      </trkpt>
      <trkpt lat="44.23378" lon="0.57184">
        <ele>65.8</ele>
        <time>2026-01-04T13:39:54.337Z</time>
      </trkpt>
      <trkpt lat="44.2338" lon="0.57192">
        <ele>66.4</ele>
        <time>2026-01-04T13:40:02.337Z</time>
      </trkpt>
      <trkpt lat="44.23384" lon="0.5722">
        <ele>67</ele>
        <time>2026-01-04T13:40:18.337Z</time>
      </trkpt>
      <trkpt lat="44.23388" lon="0.57241">
        <ele>67.2</ele>
        <time>2026-01-04T13:40:30.337Z</time>
      </trkpt>
      <trkpt lat="44.23391" lon="0.57252">
        <ele>67.3</ele>
        <time>2026-01-04T13:40:36.337Z</time>
      </trkpt>
      <trkpt lat="44.23392" lon="0.57259">
        <ele>67.3</ele>
        <time>2026-01-04T13:40:40.337Z</time>
      </trkpt>
      <trkpt lat="44.23397" lon="0.57277">
        <ele>67.9</ele>
        <time>2026-01-04T13:40:52.337Z</time>
      </trkpt>
      <trkpt lat="44.23399" lon="0.57281">
        <ele>68</ele>
        <time>2026-01-04T13:40:54.337Z</time>
      </trkpt>
      <trkpt lat="44.23401" lon="0.57297">
        <ele>67.9</ele>
        <time>2026-01-04T13:41:04.337Z</time>
      </trkpt>
      <trkpt lat="44.23416" lon="0.57333">
        <ele>67.9</ele>
        <time>2026-01-04T13:41:28.337Z</time>
      </trkpt>
      <trkpt lat="44.23419" lon="0.57346">
        <ele>68.8</ele>
        <time>2026-01-04T13:41:36.337Z</time>
      </trkpt>
      <trkpt lat="44.23418" lon="0.57367">
        <ele>69.6</ele>
        <time>2026-01-04T13:41:48.337Z</time>
      </trkpt>
      <trkpt lat="44.23413" lon="0.57379">
        <ele>69.8</ele>
        <time>2026-01-04T13:41:56.337Z</time>
      </trkpt>
      <trkpt lat="44.23409" lon="0.57384">
        <ele>69.6</ele>
        <time>2026-01-04T13:42:00.337Z</time>
      </trkpt>
      <trkpt lat="44.23406" lon="0.5739">
        <ele>69.4</ele>
        <time>2026-01-04T13:42:04.337Z</time>
      </trkpt>
      <trkpt lat="44.23399" lon="0.574">
        <ele>68.7</ele>
        <time>2026-01-04T13:42:12.337Z</time>
      </trkpt>
      <trkpt lat="44.23387" lon="0.57422">
        <ele>68</ele>
        <time>2026-01-04T13:42:28.337Z</time>
      </trkpt>
      <trkpt lat="44.23382" lon="0.57434">
        <ele>67.8</ele>
        <time>2026-01-04T13:42:36.337Z</time>
      </trkpt>
      <trkpt lat="44.23383" lon="0.5744">
        <ele>68.2</ele>
        <time>2026-01-04T13:42:42.337Z</time>
      </trkpt>
      <trkpt lat="44.2339" lon="0.57444">
        <ele>69.1</ele>
        <time>2026-01-04T13:42:48.337Z</time>
      </trkpt>
      <trkpt lat="44.234" lon="0.57444">
        <ele>69.8</ele>
        <time>2026-01-04T13:42:56.337Z</time>
      </trkpt>
      <trkpt lat="44.23404" lon="0.57446">
        <ele>70.1</ele>
        <time>2026-01-04T13:43:00.337Z</time>
      </trkpt>
      <trkpt lat="44.23412" lon="0.57447">
        <ele>70.6</ele>
        <time>2026-01-04T13:43:08.337Z</time>
      </trkpt>
      <trkpt lat="44.23415" lon="0.57446">
        <ele>70.9</ele>
        <time>2026-01-04T13:43:10.337Z</time>
      </trkpt>
      <trkpt lat="44.23419" lon="0.57447">
        <ele>71.1</ele>
        <time>2026-01-04T13:43:14.337Z</time>
      </trkpt>
      <trkpt lat="44.23422" lon="0.57446">
        <ele>71.3</ele>
        <time>2026-01-04T13:43:18.337Z</time>
      </trkpt>
      <trkpt lat="44.23447" lon="0.57449">
        <ele>73.4</ele>
        <time>2026-01-04T13:43:38.337Z</time>
      </trkpt>
      <trkpt lat="44.23451" lon="0.57452">
        <ele>73.9</ele>
        <time>2026-01-04T13:43:42.337Z</time>
      </trkpt>
      <trkpt lat="44.2346" lon="0.57453">
        <ele>75.1</ele>
        <time>2026-01-04T13:43:50.337Z</time>
      </trkpt>
      <trkpt lat="44.23471" lon="0.57453">
        <ele>76.5</ele>
        <time>2026-01-04T13:44:02.337Z</time>
      </trkpt>
      <trkpt lat="44.23487" lon="0.57453">
        <ele>79</ele>
        <time>2026-01-04T13:44:21.337Z</time>
      </trkpt>
      <trkpt lat="44.23491" lon="0.57453">
        <ele>79.6</ele>
        <time>2026-01-04T13:44:25.337Z</time>
      </trkpt>
      <trkpt lat="44.23513" lon="0.57465">
        <ele>82.8</ele>
        <time>2026-01-04T13:44:49.337Z</time>
      </trkpt>
      <trkpt lat="44.23541" lon="0.57476">
        <ele>87.1</ele>
        <time>2026-01-04T13:45:21.337Z</time>
      </trkpt>
      <trkpt lat="44.23548" lon="0.57477">
        <ele>88.1</ele>
        <time>2026-01-04T13:45:29.337Z</time>
      </trkpt>
      <trkpt lat="44.2356" lon="0.57475">
        <ele>89.8</ele>
        <time>2026-01-04T13:45:43.337Z</time>
      </trkpt>
      <trkpt lat="44.23571" lon="0.57465">
        <ele>91.7</ele>
        <time>2026-01-04T13:46:15.337Z</time>
      </trkpt>
      <trkpt lat="44.23577" lon="0.57461">
        <ele>92.9</ele>
        <time>2026-01-04T13:46:23.337Z</time>
      </trkpt>
      <trkpt lat="44.2358" lon="0.57457">
        <ele>93.4</ele>
        <time>2026-01-04T13:46:27.337Z</time>
      </trkpt>
      <trkpt lat="44.23587" lon="0.57455">
        <ele>95.1</ele>
        <time>2026-01-04T13:46:35.337Z</time>
      </trkpt>
      <trkpt lat="44.23593" lon="0.57456">
        <ele>96.9</ele>
        <time>2026-01-04T13:46:41.337Z</time>
      </trkpt>
      <trkpt lat="44.23601" lon="0.57466">
        <ele>98.4</ele>
        <time>2026-01-04T13:46:51.337Z</time>
      </trkpt>
      <trkpt lat="44.23607" lon="0.57478">
        <ele>98.5</ele>
        <time>2026-01-04T13:47:01.337Z</time>
      </trkpt>
      <trkpt lat="44.2361" lon="0.57492">
        <ele>97.8</ele>
        <time>2026-01-04T13:47:09.337Z</time>
      </trkpt>
      <trkpt lat="44.2361" lon="0.57496">
        <ele>97.3</ele>
        <time>2026-01-04T13:47:11.337Z</time>
      </trkpt>
      <trkpt lat="44.23608" lon="0.5751">
        <ele>97.7</ele>
        <time>2026-01-04T13:47:21.337Z</time>
      </trkpt>
      <trkpt lat="44.23601" lon="0.57525">
        <ele>98.3</ele>
        <time>2026-01-04T13:47:33.337Z</time>
      </trkpt>
      <trkpt lat="44.23599" lon="0.57526">
        <ele>98.1</ele>
        <time>2026-01-04T13:47:37.337Z</time>
      </trkpt>
      <trkpt lat="44.236" lon="0.57529">
        <ele>98.5</ele>
        <time>2026-01-04T13:50:33.337Z</time>
      </trkpt>
      <trkpt lat="44.23601" lon="0.5753">
        <ele>98.8</ele>
        <time>2026-01-04T13:50:37.337Z</time>
      </trkpt>
      <trkpt lat="44.23604" lon="0.57529">
        <ele>99.1</ele>
        <time>2026-01-04T13:50:41.337Z</time>
      </trkpt>
      <trkpt lat="44.23608" lon="0.57523">
        <ele>99</ele>
        <time>2026-01-04T13:50:49.337Z</time>
      </trkpt>
      <trkpt lat="44.2361" lon="0.5751">
        <ele>98</ele>
        <time>2026-01-04T13:50:57.337Z</time>
      </trkpt>
      <trkpt lat="44.23613" lon="0.57498">
        <ele>97.6</ele>
        <time>2026-01-04T13:51:05.337Z</time>
      </trkpt>
      <trkpt lat="44.23619" lon="0.57491">
        <ele>100</ele>
        <time>2026-01-04T13:51:13.337Z</time>
      </trkpt>
      <trkpt lat="44.23626" lon="0.57492">
        <ele>101.9</ele>
        <time>2026-01-04T13:51:21.337Z</time>
      </trkpt>
      <trkpt lat="44.23629" lon="0.57493">
        <ele>102.5</ele>
        <time>2026-01-04T13:51:25.337Z</time>
      </trkpt>
      <trkpt lat="44.23631" lon="0.57492">
        <ele>103</ele>
        <time>2026-01-04T13:51:27.337Z</time>
      </trkpt>
      <trkpt lat="44.23634" lon="0.57496">
        <ele>103.2</ele>
        <time>2026-01-04T13:51:33.337Z</time>
      </trkpt>
      <trkpt lat="44.23636" lon="0.57497">
        <ele>103.7</ele>
        <time>2026-01-04T13:51:35.337Z</time>
      </trkpt>
      <trkpt lat="44.23639" lon="0.57503">
        <ele>104.1</ele>
        <time>2026-01-04T13:51:39.337Z</time>
      </trkpt>
      <trkpt lat="44.23645" lon="0.57508">
        <ele>105.6</ele>
        <time>2026-01-04T13:51:43.337Z</time>
      </trkpt>
      <trkpt lat="44.2365" lon="0.57518">
        <ele>106.8</ele>
        <time>2026-01-04T13:51:49.337Z</time>
      </trkpt>
      <trkpt lat="44.23652" lon="0.5752">
        <ele>107.4</ele>
        <time>2026-01-04T13:51:51.337Z</time>
      </trkpt>
      <trkpt lat="44.23656" lon="0.57528">
        <ele>108.2</ele>
        <time>2026-01-04T13:51:57.337Z</time>
      </trkpt>
      <trkpt lat="44.23661" lon="0.57538">
        <ele>109.6</ele>
        <time>2026-01-04T13:52:05.337Z</time>
      </trkpt>
      <trkpt lat="44.23664" lon="0.57547">
        <ele>110.2</ele>
        <time>2026-01-04T13:52:11.337Z</time>
      </trkpt>
      <trkpt lat="44.23668" lon="0.57571">
        <ele>109</ele>
        <time>2026-01-04T13:52:31.337Z</time>
      </trkpt>
      <trkpt lat="44.23669" lon="0.57576">
        <ele>108.7</ele>
        <time>2026-01-04T13:52:35.337Z</time>
      </trkpt>
      <trkpt lat="44.23673" lon="0.57581">
        <ele>108.9</ele>
        <time>2026-01-04T13:52:39.337Z</time>
      </trkpt>
      <trkpt lat="44.23673" lon="0.57585">
        <ele>108.4</ele>
        <time>2026-01-04T13:52:43.337Z</time>
      </trkpt>
      <trkpt lat="44.23675" lon="0.5759">
        <ele>108.5</ele>
        <time>2026-01-04T13:52:47.337Z</time>
      </trkpt>
      <trkpt lat="44.23681" lon="0.576">
        <ele>109.2</ele>
        <time>2026-01-04T13:52:55.337Z</time>
      </trkpt>
      <trkpt lat="44.23683" lon="0.57606">
        <ele>109</ele>
        <time>2026-01-04T13:52:59.337Z</time>
      </trkpt>
      <trkpt lat="44.23685" lon="0.57612">
        <ele>109.3</ele>
        <time>2026-01-04T13:53:03.337Z</time>
      </trkpt>
      <trkpt lat="44.23685" lon="0.57619">
        <ele>109.2</ele>
        <time>2026-01-04T13:53:07.337Z</time>
      </trkpt>
      <trkpt lat="44.23685" lon="0.57623">
        <ele>108.8</ele>
        <time>2026-01-04T13:53:09.337Z</time>
      </trkpt>
      <trkpt lat="44.23687" lon="0.57647">
        <ele>109.1</ele>
        <time>2026-01-04T13:53:24.337Z</time>
      </trkpt>
      <trkpt lat="44.23686" lon="0.57674">
        <ele>109.2</ele>
        <time>2026-01-04T13:53:40.337Z</time>
      </trkpt>
      <trkpt lat="44.23684" lon="0.57684">
        <ele>108.6</ele>
        <time>2026-01-04T13:53:46.337Z</time>
      </trkpt>
      <trkpt lat="44.23685" lon="0.5769">
        <ele>109.3</ele>
        <time>2026-01-04T13:53:50.337Z</time>
      </trkpt>
      <trkpt lat="44.23685" lon="0.57697">
        <ele>109.3</ele>
        <time>2026-01-04T13:53:54.337Z</time>
      </trkpt>
      <trkpt lat="44.23687" lon="0.57705">
        <ele>109.9</ele>
        <time>2026-01-04T13:53:58.337Z</time>
      </trkpt>
      <trkpt lat="44.23686" lon="0.57716">
        <ele>109.5</ele>
        <time>2026-01-04T13:54:06.337Z</time>
      </trkpt>
      <trkpt lat="44.23685" lon="0.57729">
        <ele>109.2</ele>
        <time>2026-01-04T13:54:14.337Z</time>
      </trkpt>
      <trkpt lat="44.23684" lon="0.57735">
        <ele>108.6</ele>
        <time>2026-01-04T13:54:18.337Z</time>
      </trkpt>
      <trkpt lat="44.23685" lon="0.5776">
        <ele>108.7</ele>
        <time>2026-01-04T13:54:34.337Z</time>
      </trkpt>
      <trkpt lat="44.23681" lon="0.57789">
        <ele>107.5</ele>
        <time>2026-01-04T13:54:52.337Z</time>
      </trkpt>
      <trkpt lat="44.23682" lon="0.57793">
        <ele>107.9</ele>
        <time>2026-01-04T13:54:54.337Z</time>
      </trkpt>
      <trkpt lat="44.2368" lon="0.57805">
        <ele>107.8</ele>
        <time>2026-01-04T13:55:02.337Z</time>
      </trkpt>
      <trkpt lat="44.2368" lon="0.57823">
        <ele>109.3</ele>
        <time>2026-01-04T13:55:14.337Z</time>
      </trkpt>
      <trkpt lat="44.23687" lon="0.57839">
        <ele>112.6</ele>
        <time>2026-01-04T13:55:26.337Z</time>
      </trkpt>
      <trkpt lat="44.23689" lon="0.57843">
        <ele>113.4</ele>
        <time>2026-01-04T13:55:28.337Z</time>
      </trkpt>
      <trkpt lat="44.23691" lon="0.57856">
        <ele>114.9</ele>
        <time>2026-01-04T13:55:36.337Z</time>
      </trkpt>
      <trkpt lat="44.23691" lon="0.57868">
        <ele>115.3</ele>
        <time>2026-01-04T13:55:44.337Z</time>
      </trkpt>
      <trkpt lat="44.23693" lon="0.57882">
        <ele>115.8</ele>
        <time>2026-01-04T13:55:52.337Z</time>
      </trkpt>
      <trkpt lat="44.23694" lon="0.57894">
        <ele>115.8</ele>
        <time>2026-01-04T13:56:00.337Z</time>
      </trkpt>
      <trkpt lat="44.23696" lon="0.57908">
        <ele>116.2</ele>
        <time>2026-01-04T13:56:08.337Z</time>
      </trkpt>
      <trkpt lat="44.23695" lon="0.57914">
        <ele>116.1</ele>
        <time>2026-01-04T13:56:12.337Z</time>
      </trkpt>
      <trkpt lat="44.237" lon="0.57953">
        <ele>116.1</ele>
        <time>2026-01-04T13:56:36.337Z</time>
      </trkpt>
      <trkpt lat="44.23705" lon="0.57961">
        <ele>116.1</ele>
        <time>2026-01-04T13:56:44.337Z</time>
      </trkpt>
      <trkpt lat="44.23707" lon="0.57963">
        <ele>116.3</ele>
        <time>2026-01-04T13:56:46.337Z</time>
      </trkpt>
      <trkpt lat="44.23715" lon="0.57965">
        <ele>117.3</ele>
        <time>2026-01-04T13:56:54.337Z</time>
      </trkpt>
      <trkpt lat="44.23722" lon="0.57965">
        <ele>118.2</ele>
        <time>2026-01-04T13:57:02.337Z</time>
      </trkpt>
      <trkpt lat="44.23726" lon="0.57962">
        <ele>119.3</ele>
        <time>2026-01-04T13:57:06.337Z</time>
      </trkpt>
      <trkpt lat="44.23734" lon="0.57961">
        <ele>121.2</ele>
        <time>2026-01-04T13:57:14.337Z</time>
      </trkpt>
      <trkpt lat="44.23739" lon="0.5796">
        <ele>122.2</ele>
        <time>2026-01-04T13:57:18.337Z</time>
      </trkpt>
      <trkpt lat="44.23745" lon="0.57961">
        <ele>123.6</ele>
        <time>2026-01-04T13:57:38.337Z</time>
      </trkpt>
      <trkpt lat="44.23748" lon="0.57959">
        <ele>124.5</ele>
        <time>2026-01-04T13:57:46.337Z</time>
      </trkpt>
      <trkpt lat="44.2375" lon="0.57956">
        <ele>125.2</ele>
        <time>2026-01-04T13:58:54.337Z</time>
      </trkpt>
      <trkpt lat="44.23754" lon="0.57956">
        <ele>126.4</ele>
        <time>2026-01-04T14:03:06.337Z</time>
      </trkpt>
      <trkpt lat="44.23758" lon="0.57956">
        <ele>127.7</ele>
        <time>2026-01-04T14:03:14.337Z</time>
      </trkpt>
      <trkpt lat="44.23761" lon="0.57954">
        <ele>129</ele>
        <time>2026-01-04T14:03:22.337Z</time>
      </trkpt>
      <trkpt lat="44.23764" lon="0.57954">
        <ele>129.8</ele>
        <time>2026-01-04T14:03:26.337Z</time>
      </trkpt>
      <trkpt lat="44.23775" lon="0.57948">
        <ele>133.1</ele>
        <time>2026-01-04T14:03:50.337Z</time>
      </trkpt>
      <trkpt lat="44.23778" lon="0.57944">
        <ele>133.9</ele>
        <time>2026-01-04T14:03:58.337Z</time>
      </trkpt>
      <trkpt lat="44.23779" lon="0.57944">
        <ele>134.4</ele>
        <time>2026-01-04T14:04:06.337Z</time>
      </trkpt>
      <trkpt lat="44.2378" lon="0.57943">
        <ele>134.8</ele>
        <time>2026-01-04T14:04:26.337Z</time>
      </trkpt>
      <trkpt lat="44.23782" lon="0.57936">
        <ele>136</ele>
        <time>2026-01-04T14:04:42.337Z</time>
      </trkpt>
      <trkpt lat="44.23788" lon="0.57924">
        <ele>138.6</ele>
        <time>2026-01-04T14:04:58.337Z</time>
      </trkpt>
      <trkpt lat="44.23791" lon="0.57912">
        <ele>140</ele>
        <time>2026-01-04T14:05:14.337Z</time>
      </trkpt>
      <trkpt lat="44.23792" lon="0.57907">
        <ele>140.3</ele>
        <time>2026-01-04T14:05:18.337Z</time>
      </trkpt>
      <trkpt lat="44.23794" lon="0.57904">
        <ele>140.9</ele>
        <time>2026-01-04T14:05:22.337Z</time>
      </trkpt>
      <trkpt lat="44.23795" lon="0.57899">
        <ele>141.4</ele>
        <time>2026-01-04T14:05:26.337Z</time>
      </trkpt>
      <trkpt lat="44.238" lon="0.57895">
        <ele>142.8</ele>
        <time>2026-01-04T14:05:34.337Z</time>
      </trkpt>
      <trkpt lat="44.23807" lon="0.57889">
        <ele>144.1</ele>
        <time>2026-01-04T14:05:42.337Z</time>
      </trkpt>
      <trkpt lat="44.23819" lon="0.57875">
        <ele>145.7</ele>
        <time>2026-01-04T14:05:58.337Z</time>
      </trkpt>
      <trkpt lat="44.23827" lon="0.57867">
        <ele>146.5</ele>
        <time>2026-01-04T14:06:06.337Z</time>
      </trkpt>
      <trkpt lat="44.23828" lon="0.57864">
        <ele>146.6</ele>
        <time>2026-01-04T14:06:08.337Z</time>
      </trkpt>
      <trkpt lat="44.23835" lon="0.57858">
        <ele>147.3</ele>
        <time>2026-01-04T14:06:16.337Z</time>
      </trkpt>
      <trkpt lat="44.23843" lon="0.57854">
        <ele>148.7</ele>
        <time>2026-01-04T14:06:24.337Z</time>
      </trkpt>
      <trkpt lat="44.23852" lon="0.5785">
        <ele>150</ele>
        <time>2026-01-04T14:06:32.337Z</time>
      </trkpt>
      <trkpt lat="44.23867" lon="0.57847">
        <ele>151.9</ele>
        <time>2026-01-04T14:06:48.337Z</time>
      </trkpt>
      <trkpt lat="44.23898" lon="0.57843">
        <ele>153.9</ele>
        <time>2026-01-04T14:07:20.337Z</time>
      </trkpt>
      <trkpt lat="44.23911" lon="0.57841">
        <ele>154.3</ele>
        <time>2026-01-04T14:07:32.337Z</time>
      </trkpt>
      <trkpt lat="44.23919" lon="0.57836">
        <ele>154.7</ele>
        <time>2026-01-04T14:07:40.337Z</time>
      </trkpt>
      <trkpt lat="44.23923" lon="0.57835">
        <ele>154.6</ele>
        <time>2026-01-04T14:07:44.337Z</time>
      </trkpt>
      <trkpt lat="44.23941" lon="0.57827">
        <ele>154.8</ele>
        <time>2026-01-04T14:08:00.337Z</time>
      </trkpt>
      <trkpt lat="44.23953" lon="0.57819">
        <ele>155.3</ele>
        <time>2026-01-04T14:08:12.337Z</time>
      </trkpt>
      <trkpt lat="44.23978" lon="0.57806">
        <ele>155.6</ele>
        <time>2026-01-04T14:08:36.337Z</time>
      </trkpt>
      <trkpt lat="44.23992" lon="0.57795">
        <ele>155.6</ele>
        <time>2026-01-04T14:08:52.337Z</time>
      </trkpt>
      <trkpt lat="44.23996" lon="0.57794">
        <ele>155.4</ele>
        <time>2026-01-04T14:08:56.337Z</time>
      </trkpt>
      <trkpt lat="44.24006" lon="0.57789">
        <ele>155.2</ele>
        <time>2026-01-04T14:09:12.337Z</time>
      </trkpt>
      <trkpt lat="44.24008" lon="0.5778">
        <ele>155.9</ele>
        <time>2026-01-04T14:09:50.337Z</time>
      </trkpt>
      <trkpt lat="44.24014" lon="0.57772">
        <ele>155.9</ele>
        <time>2026-01-04T14:10:34.337Z</time>
      </trkpt>
      <trkpt lat="44.24015" lon="0.5777">
        <ele>156</ele>
        <time>2026-01-04T14:10:38.337Z</time>
      </trkpt>
      <trkpt lat="44.24022" lon="0.5777">
        <ele>155.4</ele>
        <time>2026-01-04T14:10:46.337Z</time>
      </trkpt>
      <trkpt lat="44.24044" lon="0.57756">
        <ele>155.3</ele>
        <time>2026-01-04T14:11:10.337Z</time>
      </trkpt>
      <trkpt lat="44.2405" lon="0.57754">
        <ele>155</ele>
        <time>2026-01-04T14:11:18.337Z</time>
      </trkpt>
      <trkpt lat="44.24062" lon="0.57747">
        <ele>154.6</ele>
        <time>2026-01-04T14:11:34.337Z</time>
      </trkpt>
      <trkpt lat="44.24076" lon="0.57735">
        <ele>153.9</ele>
        <time>2026-01-04T14:11:50.337Z</time>
      </trkpt>
      <trkpt lat="44.2409" lon="0.5772">
        <ele>153.7</ele>
        <time>2026-01-04T14:12:10.337Z</time>
      </trkpt>
      <trkpt lat="44.24094" lon="0.57712">
        <ele>154.1</ele>
        <time>2026-01-04T14:12:18.337Z</time>
      </trkpt>
      <trkpt lat="44.241" lon="0.57707">
        <ele>153.7</ele>
        <time>2026-01-04T14:12:26.337Z</time>
      </trkpt>
      <trkpt lat="44.24105" lon="0.57699">
        <ele>153.7</ele>
        <time>2026-01-04T14:12:34.337Z</time>
      </trkpt>
      <trkpt lat="44.24111" lon="0.57692">
        <ele>153.3</ele>
        <time>2026-01-04T14:12:42.337Z</time>
      </trkpt>
      <trkpt lat="44.24121" lon="0.57683">
        <ele>153.2</ele>
        <time>2026-01-04T14:12:54.337Z</time>
      </trkpt>
      <trkpt lat="44.24128" lon="0.5768">
        <ele>152.8</ele>
        <time>2026-01-04T14:13:00.337Z</time>
      </trkpt>
      <trkpt lat="44.24147" lon="0.57662">
        <ele>151.8</ele>
        <time>2026-01-04T14:13:24.337Z</time>
      </trkpt>
      <trkpt lat="44.24164" lon="0.57652">
        <ele>150.9</ele>
        <time>2026-01-04T14:13:40.337Z</time>
      </trkpt>
      <trkpt lat="44.24179" lon="0.57647">
        <ele>149</ele>
        <time>2026-01-04T14:13:56.337Z</time>
      </trkpt>
      <trkpt lat="44.24181" lon="0.57643">
        <ele>148.7</ele>
        <time>2026-01-04T14:14:00.337Z</time>
      </trkpt>
      <trkpt lat="44.24185" lon="0.57641">
        <ele>148.3</ele>
        <time>2026-01-04T14:14:04.337Z</time>
      </trkpt>
      <trkpt lat="44.24191" lon="0.57635">
        <ele>147.8</ele>
        <time>2026-01-04T14:14:12.337Z</time>
      </trkpt>
      <trkpt lat="44.24205" lon="0.57627">
        <ele>147.9</ele>
        <time>2026-01-04T14:14:44.337Z</time>
      </trkpt>
      <trkpt lat="44.24208" lon="0.5762">
        <ele>148.3</ele>
        <time>2026-01-04T14:16:00.337Z</time>
      </trkpt>
      <trkpt lat="44.24216" lon="0.57618">
        <ele>148.5</ele>
        <time>2026-01-04T14:16:18.337Z</time>
      </trkpt>
      <trkpt lat="44.24228" lon="0.57614">
        <ele>148.9</ele>
        <time>2026-01-04T14:16:34.337Z</time>
      </trkpt>
      <trkpt lat="44.24235" lon="0.57612">
        <ele>149.4</ele>
        <time>2026-01-04T14:16:42.337Z</time>
      </trkpt>
      <trkpt lat="44.24246" lon="0.57611">
        <ele>149.9</ele>
        <time>2026-01-04T14:16:50.337Z</time>
      </trkpt>
      <trkpt lat="44.24255" lon="0.57611">
        <ele>150.3</ele>
        <time>2026-01-04T14:16:58.337Z</time>
      </trkpt>
      <trkpt lat="44.24263" lon="0.5761">
        <ele>151</ele>
        <time>2026-01-04T14:17:06.337Z</time>
      </trkpt>
      <trkpt lat="44.2428" lon="0.57617">
        <ele>151.2</ele>
        <time>2026-01-04T14:17:22.337Z</time>
      </trkpt>
      <trkpt lat="44.24284" lon="0.57619">
        <ele>151</ele>
        <time>2026-01-04T14:17:26.337Z</time>
      </trkpt>
      <trkpt lat="44.24314" lon="0.57651">
        <ele>149.8</ele>
        <time>2026-01-04T14:18:06.337Z</time>
      </trkpt>
      <trkpt lat="44.24342" lon="0.5767">
        <ele>148.5</ele>
        <time>2026-01-04T14:18:38.337Z</time>
      </trkpt>
      <trkpt lat="44.24344" lon="0.57671">
        <ele>148.5</ele>
        <time>2026-01-04T14:18:40.337Z</time>
      </trkpt>
      <trkpt lat="44.24348" lon="0.57675">
        <ele>147.9</ele>
        <time>2026-01-04T14:18:44.337Z</time>
      </trkpt>
      <trkpt lat="44.24366" lon="0.57685">
        <ele>147.5</ele>
        <time>2026-01-04T14:19:00.337Z</time>
      </trkpt>
      <trkpt lat="44.2438" lon="0.57694">
        <ele>146.7</ele>
        <time>2026-01-04T14:19:16.337Z</time>
      </trkpt>
      <trkpt lat="44.24385" lon="0.57701">
        <ele>145.9</ele>
        <time>2026-01-04T14:19:44.337Z</time>
      </trkpt>
      <trkpt lat="44.24387" lon="0.57703">
        <ele>145.9</ele>
        <time>2026-01-04T14:20:16.337Z</time>
      </trkpt>
      <trkpt lat="44.2439" lon="0.57701">
        <ele>146.3</ele>
        <time>2026-01-04T14:20:40.337Z</time>
      </trkpt>
      <trkpt lat="44.244" lon="0.57703">
        <ele>146.3</ele>
        <time>2026-01-04T14:20:50.337Z</time>
      </trkpt>
      <trkpt lat="44.24403" lon="0.57706">
        <ele>145.9</ele>
        <time>2026-01-04T14:20:54.337Z</time>
      </trkpt>
      <trkpt lat="44.24407" lon="0.57708">
        <ele>145.6</ele>
        <time>2026-01-04T14:20:58.337Z</time>
      </trkpt>
      <trkpt lat="44.24411" lon="0.57711">
        <ele>145.1</ele>
        <time>2026-01-04T14:21:04.337Z</time>
      </trkpt>
      <trkpt lat="44.24428" lon="0.57711">
        <ele>145.9</ele>
        <time>2026-01-04T14:21:20.337Z</time>
      </trkpt>
      <trkpt lat="44.24437" lon="0.5771">
        <ele>146.8</ele>
        <time>2026-01-04T14:21:28.337Z</time>
      </trkpt>
      <trkpt lat="44.24446" lon="0.57709">
        <ele>147.6</ele>
        <time>2026-01-04T14:21:44.337Z</time>
      </trkpt>
      <trkpt lat="44.24469" lon="0.57707">
        <ele>150.6</ele>
        <time>2026-01-04T14:22:04.336Z</time>
      </trkpt>
      <trkpt lat="44.24478" lon="0.57708">
        <ele>151.7</ele>
        <time>2026-01-04T14:22:12.337Z</time>
      </trkpt>
      <trkpt lat="44.24495" lon="0.57707">
        <ele>153.5</ele>
        <time>2026-01-04T14:22:28.337Z</time>
      </trkpt>
      <trkpt lat="44.24504" lon="0.57708">
        <ele>154.5</ele>
        <time>2026-01-04T14:22:36.337Z</time>
      </trkpt>
      <trkpt lat="44.24507" lon="0.57707">
        <ele>154.9</ele>
        <time>2026-01-04T14:22:40.337Z</time>
      </trkpt>
      <trkpt lat="44.24514" lon="0.57711">
        <ele>155.8</ele>
        <time>2026-01-04T14:22:48.337Z</time>
      </trkpt>
      <trkpt lat="44.24528" lon="0.57722">
        <ele>157.1</ele>
        <time>2026-01-04T14:23:04.337Z</time>
      </trkpt>
      <trkpt lat="44.24535" lon="0.5773">
        <ele>158.4</ele>
        <time>2026-01-04T14:23:12.337Z</time>
      </trkpt>
      <trkpt lat="44.24542" lon="0.57736">
        <ele>159.5</ele>
        <time>2026-01-04T14:23:20.337Z</time>
      </trkpt>
      <trkpt lat="44.24549" lon="0.5774">
        <ele>160.4</ele>
        <time>2026-01-04T14:23:28.337Z</time>
      </trkpt>
      <trkpt lat="44.24557" lon="0.57743">
        <ele>161.1</ele>
        <time>2026-01-04T14:23:36.337Z</time>
      </trkpt>
      <trkpt lat="44.24566" lon="0.57744">
        <ele>162</ele>
        <time>2026-01-04T14:23:44.337Z</time>
      </trkpt>
      <trkpt lat="44.24574" lon="0.57744">
        <ele>162.9</ele>
        <time>2026-01-04T14:23:52.337Z</time>
      </trkpt>
      <trkpt lat="44.24583" lon="0.57742">
        <ele>163.7</ele>
        <time>2026-01-04T14:24:00.337Z</time>
      </trkpt>
      <trkpt lat="44.24591" lon="0.57741">
        <ele>164.2</ele>
        <time>2026-01-04T14:24:08.337Z</time>
      </trkpt>
      <trkpt lat="44.24596" lon="0.57742">
        <ele>164.4</ele>
        <time>2026-01-04T14:24:12.337Z</time>
      </trkpt>
      <trkpt lat="44.246" lon="0.57742">
        <ele>164.6</ele>
        <time>2026-01-04T14:24:16.337Z</time>
      </trkpt>
      <trkpt lat="44.24608" lon="0.57744">
        <ele>165.1</ele>
        <time>2026-01-04T14:24:24.337Z</time>
      </trkpt>
      <trkpt lat="44.24628" lon="0.57739">
        <ele>165.2</ele>
        <time>2026-01-04T14:24:48.337Z</time>
      </trkpt>
      <trkpt lat="44.24628" lon="0.57737">
        <ele>165.2</ele>
        <time>2026-01-04T14:24:56.337Z</time>
      </trkpt>
      <trkpt lat="44.24631" lon="0.57733">
        <ele>165.2</ele>
        <time>2026-01-04T14:27:08.337Z</time>
      </trkpt>
      <trkpt lat="44.24631" lon="0.57716">
        <ele>165.5</ele>
        <time>2026-01-04T14:27:44.337Z</time>
      </trkpt>
      <trkpt lat="44.24618" lon="0.57669">
        <ele>167.6</ele>
        <time>2026-01-04T14:28:16.337Z</time>
      </trkpt>
      <trkpt lat="44.24614" lon="0.57644">
        <ele>168.7</ele>
        <time>2026-01-04T14:28:32.337Z</time>
      </trkpt>
      <trkpt lat="44.24613" lon="0.57638">
        <ele>169</ele>
        <time>2026-01-04T14:28:36.337Z</time>
      </trkpt>
      <trkpt lat="44.24612" lon="0.57627">
        <ele>169.9</ele>
        <time>2026-01-04T14:28:44.337Z</time>
      </trkpt>
      <trkpt lat="44.24612" lon="0.57601">
        <ele>171.3</ele>
        <time>2026-01-04T14:29:00.337Z</time>
      </trkpt>
      <trkpt lat="44.24617" lon="0.57581">
        <ele>171.5</ele>
        <time>2026-01-04T14:29:12.337Z</time>
      </trkpt>
      <trkpt lat="44.24621" lon="0.57531">
        <ele>172.5</ele>
        <time>2026-01-04T14:29:44.337Z</time>
      </trkpt>
      <trkpt lat="44.2462" lon="0.57492">
        <ele>173.1</ele>
        <time>2026-01-04T14:30:08.337Z</time>
      </trkpt>
      <trkpt lat="44.24616" lon="0.57474">
        <ele>173.9</ele>
        <time>2026-01-04T14:30:24.337Z</time>
      </trkpt>
      <trkpt lat="44.24619" lon="0.57459">
        <ele>173.9</ele>
        <time>2026-01-04T14:33:42.337Z</time>
      </trkpt>
      <trkpt lat="44.24621" lon="0.57434">
        <ele>174.8</ele>
        <time>2026-01-04T14:33:58.337Z</time>
      </trkpt>
      <trkpt lat="44.24626" lon="0.5741">
        <ele>175.3</ele>
        <time>2026-01-04T14:34:14.337Z</time>
      </trkpt>
      <trkpt lat="44.24629" lon="0.57379">
        <ele>177.1</ele>
        <time>2026-01-04T14:34:34.337Z</time>
      </trkpt>
      <trkpt lat="44.24632" lon="0.57368">
        <ele>177.6</ele>
        <time>2026-01-04T14:34:40.337Z</time>
      </trkpt>
      <trkpt lat="44.24634" lon="0.57365">
        <ele>177.5</ele>
        <time>2026-01-04T14:34:42.337Z</time>
      </trkpt>
      <trkpt lat="44.24638" lon="0.5735">
        <ele>178</ele>
        <time>2026-01-04T14:34:50.337Z</time>
      </trkpt>
      <trkpt lat="44.24652" lon="0.5727">
        <ele>180.6</ele>
        <time>2026-01-04T14:35:38.337Z</time>
      </trkpt>
      <trkpt lat="44.24655" lon="0.57258">
        <ele>180.6</ele>
        <time>2026-01-04T14:35:46.337Z</time>
      </trkpt>
      <trkpt lat="44.24658" lon="0.57245">
        <ele>180.8</ele>
        <time>2026-01-04T14:35:54.337Z</time>
      </trkpt>
      <trkpt lat="44.24661" lon="0.57233">
        <ele>180.6</ele>
        <time>2026-01-04T14:36:02.337Z</time>
      </trkpt>
      <trkpt lat="44.24666" lon="0.57207">
        <ele>181.3</ele>
        <time>2026-01-04T14:36:18.337Z</time>
      </trkpt>
      <trkpt lat="44.24676" lon="0.57169">
        <ele>179.3</ele>
        <time>2026-01-04T14:36:42.337Z</time>
      </trkpt>
      <trkpt lat="44.24679" lon="0.57162">
        <ele>178.7</ele>
        <time>2026-01-04T14:36:46.337Z</time>
      </trkpt>
      <trkpt lat="44.24681" lon="0.5715">
        <ele>178.7</ele>
        <time>2026-01-04T14:36:54.337Z</time>
      </trkpt>
      <trkpt lat="44.24684" lon="0.57139">
        <ele>178.5</ele>
        <time>2026-01-04T14:37:02.337Z</time>
      </trkpt>
      <trkpt lat="44.24687" lon="0.57125">
        <ele>178.7</ele>
        <time>2026-01-04T14:37:10.337Z</time>
      </trkpt>
      <trkpt lat="44.24686" lon="0.57119">
        <ele>179</ele>
        <time>2026-01-04T14:37:12.337Z</time>
      </trkpt>
      <trkpt lat="44.24689" lon="0.57111">
        <ele>178.9</ele>
        <time>2026-01-04T14:37:18.337Z</time>
      </trkpt>
      <trkpt lat="44.24693" lon="0.57107">
        <ele>178.5</ele>
        <time>2026-01-04T14:37:22.337Z</time>
      </trkpt>
      <trkpt lat="44.24707" lon="0.57058">
        <ele>174.1</ele>
        <time>2026-01-04T14:37:54.337Z</time>
      </trkpt>
      <trkpt lat="44.24709" lon="0.57042">
        <ele>173.7</ele>
        <time>2026-01-04T14:38:04.337Z</time>
      </trkpt>
      <trkpt lat="44.24717" lon="0.57015">
        <ele>172.5</ele>
        <time>2026-01-04T14:38:20.337Z</time>
      </trkpt>
      <trkpt lat="44.24719" lon="0.57011">
        <ele>172.1</ele>
        <time>2026-01-04T14:38:24.337Z</time>
      </trkpt>
      <trkpt lat="44.24722" lon="0.56996">
        <ele>172.5</ele>
        <time>2026-01-04T14:38:32.337Z</time>
      </trkpt>
      <trkpt lat="44.24723" lon="0.56982">
        <ele>173.7</ele>
        <time>2026-01-04T14:38:40.337Z</time>
      </trkpt>
      <trkpt lat="44.24726" lon="0.5697">
        <ele>173.5</ele>
        <time>2026-01-04T14:38:48.337Z</time>
      </trkpt>
      <trkpt lat="44.24728" lon="0.56964">
        <ele>172.7</ele>
        <time>2026-01-04T14:38:52.337Z</time>
      </trkpt>
      <trkpt lat="44.24733" lon="0.56937">
        <ele>171.7</ele>
        <time>2026-01-04T14:39:08.337Z</time>
      </trkpt>
      <trkpt lat="44.24735" lon="0.56932">
        <ele>171.2</ele>
        <time>2026-01-04T14:39:12.337Z</time>
      </trkpt>
      <trkpt lat="44.24738" lon="0.56919">
        <ele>171.1</ele>
        <time>2026-01-04T14:39:20.337Z</time>
      </trkpt>
      <trkpt lat="44.24743" lon="0.56907">
        <ele>170.8</ele>
        <time>2026-01-04T14:39:28.337Z</time>
      </trkpt>
      <trkpt lat="44.24746" lon="0.56901">
        <ele>170.8</ele>
        <time>2026-01-04T14:39:32.337Z</time>
      </trkpt>
      <trkpt lat="44.24756" lon="0.56864">
        <ele>171.8</ele>
        <time>2026-01-04T14:39:54.337Z</time>
      </trkpt>
      <trkpt lat="44.24758" lon="0.56833">
        <ele>171.5</ele>
        <time>2026-01-04T14:40:10.337Z</time>
      </trkpt>
      <trkpt lat="44.24764" lon="0.56805">
        <ele>169.5</ele>
        <time>2026-01-04T14:40:30.337Z</time>
      </trkpt>
      <trkpt lat="44.24764" lon="0.56778">
        <ele>169.6</ele>
        <time>2026-01-04T14:40:46.337Z</time>
      </trkpt>
      <trkpt lat="44.24767" lon="0.5676">
        <ele>168.8</ele>
        <time>2026-01-04T14:40:58.337Z</time>
      </trkpt>
      <trkpt lat="44.24766" lon="0.56754">
        <ele>169</ele>
        <time>2026-01-04T14:41:02.337Z</time>
      </trkpt>
      <trkpt lat="44.24769" lon="0.56705">
        <ele>168.9</ele>
        <time>2026-01-04T14:41:30.337Z</time>
      </trkpt>
      <trkpt lat="44.24774" lon="0.56685">
        <ele>169</ele>
        <time>2026-01-04T14:41:42.337Z</time>
      </trkpt>
      <trkpt lat="44.2478" lon="0.56652">
        <ele>169.5</ele>
        <time>2026-01-04T14:42:02.337Z</time>
      </trkpt>
      <trkpt lat="44.24783" lon="0.56637">
        <ele>168.6</ele>
        <time>2026-01-04T14:42:10.337Z</time>
      </trkpt>
      <trkpt lat="44.24787" lon="0.56624">
        <ele>167.4</ele>
        <time>2026-01-04T14:42:18.337Z</time>
      </trkpt>
      <trkpt lat="44.2479" lon="0.56613">
        <ele>166.8</ele>
        <time>2026-01-04T14:42:26.337Z</time>
      </trkpt>
      <trkpt lat="44.2479" lon="0.56607">
        <ele>166.7</ele>
        <time>2026-01-04T14:42:30.337Z</time>
      </trkpt>
      <trkpt lat="44.24789" lon="0.56604">
        <ele>166.8</ele>
        <time>2026-01-04T14:42:56.336Z</time>
      </trkpt>
      <trkpt lat="44.24787" lon="0.56603">
        <ele>167.2</ele>
        <time>2026-01-04T14:44:44.337Z</time>
      </trkpt>
      <trkpt lat="44.24775" lon="0.56597">
        <ele>167.6</ele>
        <time>2026-01-04T14:44:56.337Z</time>
      </trkpt>
      <trkpt lat="44.24772" lon="0.56595">
        <ele>166.8</ele>
        <time>2026-01-04T14:45:00.337Z</time>
      </trkpt>
      <trkpt lat="44.24759" lon="0.56589">
        <ele>164.6</ele>
        <time>2026-01-04T14:45:12.337Z</time>
      </trkpt>
      <trkpt lat="44.2475" lon="0.56583">
        <ele>162.9</ele>
        <time>2026-01-04T14:45:20.337Z</time>
      </trkpt>
      <trkpt lat="44.24747" lon="0.5658">
        <ele>162</ele>
        <time>2026-01-04T14:45:24.337Z</time>
      </trkpt>
      <trkpt lat="44.24739" lon="0.56575">
        <ele>160.3</ele>
        <time>2026-01-04T14:45:32.337Z</time>
      </trkpt>
      <trkpt lat="44.24729" lon="0.5657">
        <ele>158.4</ele>
        <time>2026-01-04T14:45:40.337Z</time>
      </trkpt>
      <trkpt lat="44.2472" lon="0.56564">
        <ele>157</ele>
        <time>2026-01-04T14:45:48.337Z</time>
      </trkpt>
      <trkpt lat="44.24712" lon="0.56559">
        <ele>155.7</ele>
        <time>2026-01-04T14:45:56.337Z</time>
      </trkpt>
      <trkpt lat="44.24708" lon="0.56558">
        <ele>155.1</ele>
        <time>2026-01-04T14:46:00.337Z</time>
      </trkpt>
      <trkpt lat="44.247" lon="0.5656">
        <ele>154.2</ele>
        <time>2026-01-04T14:46:08.337Z</time>
      </trkpt>
      <trkpt lat="44.24675" lon="0.56573">
        <ele>152.5</ele>
        <time>2026-01-04T14:46:32.337Z</time>
      </trkpt>
      <trkpt lat="44.24652" lon="0.56582">
        <ele>150.2</ele>
        <time>2026-01-04T14:46:56.337Z</time>
      </trkpt>
      <trkpt lat="44.24637" lon="0.56586">
        <ele>147.9</ele>
        <time>2026-01-04T14:47:12.337Z</time>
      </trkpt>
      <trkpt lat="44.2463" lon="0.56588">
        <ele>147.2</ele>
        <time>2026-01-04T14:47:20.337Z</time>
      </trkpt>
      <trkpt lat="44.24623" lon="0.56593">
        <ele>146.6</ele>
        <time>2026-01-04T14:47:28.337Z</time>
      </trkpt>
      <trkpt lat="44.24615" lon="0.566">
        <ele>146.3</ele>
        <time>2026-01-04T14:47:36.337Z</time>
      </trkpt>
      <trkpt lat="44.24598" lon="0.56609">
        <ele>145.8</ele>
        <time>2026-01-04T14:47:54.337Z</time>
      </trkpt>
      <trkpt lat="44.24597" lon="0.56608">
        <ele>145.5</ele>
        <time>2026-01-04T14:47:56.337Z</time>
      </trkpt>
      <trkpt lat="44.24588" lon="0.5661">
        <ele>145.2</ele>
        <time>2026-01-04T14:48:04.337Z</time>
      </trkpt>
      <trkpt lat="44.24586" lon="0.5661">
        <ele>144.9</ele>
        <time>2026-01-04T14:48:06.337Z</time>
      </trkpt>
      <trkpt lat="44.24582" lon="0.56613">
        <ele>144.9</ele>
        <time>2026-01-04T14:48:10.337Z</time>
      </trkpt>
      <trkpt lat="44.24573" lon="0.56611">
        <ele>143.8</ele>
        <time>2026-01-04T14:48:18.337Z</time>
      </trkpt>
      <trkpt lat="44.24565" lon="0.56614">
        <ele>143.2</ele>
        <time>2026-01-04T14:48:26.337Z</time>
      </trkpt>
      <trkpt lat="44.24562" lon="0.56616">
        <ele>143</ele>
        <time>2026-01-04T14:48:30.337Z</time>
      </trkpt>
      <trkpt lat="44.24555" lon="0.56618">
        <ele>142.4</ele>
        <time>2026-01-04T14:48:38.337Z</time>
      </trkpt>
      <trkpt lat="44.24551" lon="0.56619">
        <ele>142.5</ele>
        <time>2026-01-04T14:48:42.337Z</time>
      </trkpt>
      <trkpt lat="44.24546" lon="0.5662">
        <ele>142.4</ele>
        <time>2026-01-04T14:48:50.337Z</time>
      </trkpt>
      <trkpt lat="44.24541" lon="0.56618">
        <ele>142.1</ele>
        <time>2026-01-04T14:48:58.337Z</time>
      </trkpt>
      <trkpt lat="44.24536" lon="0.56619">
        <ele>142</ele>
        <time>2026-01-04T14:49:06.337Z</time>
      </trkpt>
      <trkpt lat="44.24526" lon="0.56622">
        <ele>142.3</ele>
        <time>2026-01-04T14:55:18.337Z</time>
      </trkpt>
      <trkpt lat="44.2453" lon="0.56617">
        <ele>141.7</ele>
        <time>2026-01-04T14:55:30.337Z</time>
      </trkpt>
      <trkpt lat="44.24538" lon="0.56604">
        <ele>140.6</ele>
        <time>2026-01-04T14:55:46.337Z</time>
      </trkpt>
      <trkpt lat="44.24548" lon="0.5659">
        <ele>137.2</ele>
        <time>2026-01-04T14:55:58.337Z</time>
      </trkpt>
      <trkpt lat="44.24552" lon="0.56586">
        <ele>135.4</ele>
        <time>2026-01-04T14:56:02.337Z</time>
      </trkpt>
      <trkpt lat="44.24558" lon="0.56582">
        <ele>134</ele>
        <time>2026-01-04T14:56:06.337Z</time>
      </trkpt>
      <trkpt lat="44.24565" lon="0.56579">
        <ele>134.4</ele>
        <time>2026-01-04T14:56:10.337Z</time>
      </trkpt>
      <trkpt lat="44.24568" lon="0.56575">
        <ele>133.7</ele>
        <time>2026-01-04T14:56:14.336Z</time>
      </trkpt>
      <trkpt lat="44.2457" lon="0.56573">
        <ele>133</ele>
        <time>2026-01-04T14:56:16.337Z</time>
      </trkpt>
      <trkpt lat="44.24573" lon="0.5657">
        <ele>132.6</ele>
        <time>2026-01-04T14:56:20.337Z</time>
      </trkpt>
      <trkpt lat="44.2458" lon="0.56568">
        <ele>132.9</ele>
        <time>2026-01-04T14:56:26.337Z</time>
      </trkpt>
      <trkpt lat="44.24581" lon="0.56566">
        <ele>132.6</ele>
        <time>2026-01-04T14:56:28.337Z</time>
      </trkpt>
      <trkpt lat="44.24584" lon="0.56561">
        <ele>130.8</ele>
        <time>2026-01-04T14:56:32.337Z</time>
      </trkpt>
      <trkpt lat="44.24588" lon="0.56557">
        <ele>130.3</ele>
        <time>2026-01-04T14:56:36.337Z</time>
      </trkpt>
      <trkpt lat="44.24591" lon="0.56557">
        <ele>131.1</ele>
        <time>2026-01-04T14:56:38.337Z</time>
      </trkpt>
      <trkpt lat="44.24599" lon="0.56551">
        <ele>131.3</ele>
        <time>2026-01-04T14:56:46.337Z</time>
      </trkpt>
      <trkpt lat="44.24608" lon="0.56536">
        <ele>130</ele>
        <time>2026-01-04T14:56:58.337Z</time>
      </trkpt>
      <trkpt lat="44.24615" lon="0.56516">
        <ele>129</ele>
        <time>2026-01-04T14:57:10.337Z</time>
      </trkpt>
      <trkpt lat="44.2462" lon="0.56492">
        <ele>127</ele>
        <time>2026-01-04T14:57:26.337Z</time>
      </trkpt>
      <trkpt lat="44.24624" lon="0.56479">
        <ele>126.5</ele>
        <time>2026-01-04T14:57:34.337Z</time>
      </trkpt>
      <trkpt lat="44.24626" lon="0.56467">
        <ele>125.4</ele>
        <time>2026-01-04T14:57:42.337Z</time>
      </trkpt>
      <trkpt lat="44.24645" lon="0.56392">
        <ele>121.2</ele>
        <time>2026-01-04T14:58:30.337Z</time>
      </trkpt>
      <trkpt lat="44.24652" lon="0.56355">
        <ele>117.8</ele>
        <time>2026-01-04T14:58:54.337Z</time>
      </trkpt>
      <trkpt lat="44.24654" lon="0.56336">
        <ele>115.9</ele>
        <time>2026-01-04T14:59:06.337Z</time>
      </trkpt>
      <trkpt lat="44.24654" lon="0.56328">
        <ele>115.4</ele>
        <time>2026-01-04T14:59:10.337Z</time>
      </trkpt>
      <trkpt lat="44.2466" lon="0.56284">
        <ele>112.4</ele>
        <time>2026-01-04T14:59:34.337Z</time>
      </trkpt>
      <trkpt lat="44.24664" lon="0.56271">
        <ele>111.7</ele>
        <time>2026-01-04T14:59:42.337Z</time>
      </trkpt>
      <trkpt lat="44.24665" lon="0.56265">
        <ele>111.2</ele>
        <time>2026-01-04T14:59:46.337Z</time>
      </trkpt>
      <trkpt lat="44.24671" lon="0.56255">
        <ele>111.1</ele>
        <time>2026-01-04T14:59:54.337Z</time>
      </trkpt>
      <trkpt lat="44.24678" lon="0.56239">
        <ele>110.3</ele>
        <time>2026-01-04T15:00:04.337Z</time>
      </trkpt>
      <trkpt lat="44.24687" lon="0.56211">
        <ele>109.2</ele>
        <time>2026-01-04T15:00:20.337Z</time>
      </trkpt>
      <trkpt lat="44.24695" lon="0.56183">
        <ele>108.1</ele>
        <time>2026-01-04T15:00:36.337Z</time>
      </trkpt>
      <trkpt lat="44.24702" lon="0.56154">
        <ele>104.1</ele>
        <time>2026-01-04T15:00:52.337Z</time>
      </trkpt>
      <trkpt lat="44.24704" lon="0.5614">
        <ele>102.6</ele>
        <time>2026-01-04T15:01:00.337Z</time>
      </trkpt>
      <trkpt lat="44.24714" lon="0.56112">
        <ele>101.5</ele>
        <time>2026-01-04T15:01:16.337Z</time>
      </trkpt>
      <trkpt lat="44.24726" lon="0.56089">
        <ele>100.3</ele>
        <time>2026-01-04T15:01:32.337Z</time>
      </trkpt>
      <trkpt lat="44.24733" lon="0.56074">
        <ele>99.5</ele>
        <time>2026-01-04T15:01:40.337Z</time>
      </trkpt>
      <trkpt lat="44.24753" lon="0.56039">
        <ele>99.2</ele>
        <time>2026-01-04T15:02:04.337Z</time>
      </trkpt>
      <trkpt lat="44.24754" lon="0.56036">
        <ele>98.8</ele>
        <time>2026-01-04T15:02:06.337Z</time>
      </trkpt>
      <trkpt lat="44.24758" lon="0.56031">
        <ele>98.9</ele>
        <time>2026-01-04T15:02:10.337Z</time>
      </trkpt>
      <trkpt lat="44.24774" lon="0.55997">
        <ele>99.9</ele>
        <time>2026-01-04T15:02:32.337Z</time>
      </trkpt>
      <trkpt lat="44.24775" lon="0.5599">
        <ele>99.4</ele>
        <time>2026-01-04T15:02:36.337Z</time>
      </trkpt>
      <trkpt lat="44.24782" lon="0.55977">
        <ele>99</ele>
        <time>2026-01-04T15:02:44.337Z</time>
      </trkpt>
      <trkpt lat="44.24787" lon="0.55974">
        <ele>99.4</ele>
        <time>2026-01-04T15:02:48.337Z</time>
      </trkpt>
      <trkpt lat="44.24815" lon="0.55911">
        <ele>99.8</ele>
        <time>2026-01-04T15:03:28.337Z</time>
      </trkpt>
      <trkpt lat="44.24816" lon="0.55905">
        <ele>98.8</ele>
        <time>2026-01-04T15:03:32.337Z</time>
      </trkpt>
      <trkpt lat="44.24838" lon="0.55858">
        <ele>97.4</ele>
        <time>2026-01-04T15:04:00.337Z</time>
      </trkpt>
      <trkpt lat="44.24847" lon="0.55843">
        <ele>96.5</ele>
        <time>2026-01-04T15:04:12.337Z</time>
      </trkpt>
      <trkpt lat="44.24853" lon="0.55834">
        <ele>97</ele>
        <time>2026-01-04T15:04:20.337Z</time>
      </trkpt>
      <trkpt lat="44.24865" lon="0.55811">
        <ele>94.3</ele>
        <time>2026-01-04T15:04:36.337Z</time>
      </trkpt>
      <trkpt lat="44.24872" lon="0.558">
        <ele>93.6</ele>
        <time>2026-01-04T15:04:44.337Z</time>
      </trkpt>
      <trkpt lat="44.24879" lon="0.55788">
        <ele>92.7</ele>
        <time>2026-01-04T15:04:52.337Z</time>
      </trkpt>
      <trkpt lat="44.24892" lon="0.55766">
        <ele>90.6</ele>
        <time>2026-01-04T15:05:08.337Z</time>
      </trkpt>
      <trkpt lat="44.2492" lon="0.55728">
        <ele>86.4</ele>
        <time>2026-01-04T15:05:40.337Z</time>
      </trkpt>
      <trkpt lat="44.24929" lon="0.55703">
        <ele>82.6</ele>
        <time>2026-01-04T15:05:56.337Z</time>
      </trkpt>
      <trkpt lat="44.24936" lon="0.55692">
        <ele>81.4</ele>
        <time>2026-01-04T15:06:04.337Z</time>
      </trkpt>
      <trkpt lat="44.24944" lon="0.55684">
        <ele>80.8</ele>
        <time>2026-01-04T15:06:12.337Z</time>
      </trkpt>
      <trkpt lat="44.24948" lon="0.55681">
        <ele>80</ele>
        <time>2026-01-04T15:06:16.337Z</time>
      </trkpt>
      <trkpt lat="44.24956" lon="0.5568">
        <ele>78.9</ele>
        <time>2026-01-04T15:06:22.337Z</time>
      </trkpt>
      <trkpt lat="44.24964" lon="0.55676">
        <ele>77.1</ele>
        <time>2026-01-04T15:07:10.337Z</time>
      </trkpt>
      <trkpt lat="44.24963" lon="0.55674">
        <ele>77</ele>
        <time>2026-01-04T15:07:34.337Z</time>
      </trkpt>
      <trkpt lat="44.24964" lon="0.55673">
        <ele>76.8</ele>
        <time>2026-01-04T15:07:38.337Z</time>
      </trkpt>
      <trkpt lat="44.24964" lon="0.5567">
        <ele>76.5</ele>
        <time>2026-01-04T15:07:42.337Z</time>
      </trkpt>
      <trkpt lat="44.24944" lon="0.55619">
        <ele>73.8</ele>
        <time>2026-01-04T15:08:22.337Z</time>
      </trkpt>
      <trkpt lat="44.24941" lon="0.55614">
        <ele>72.9</ele>
        <time>2026-01-04T15:08:38.337Z</time>
      </trkpt>
      <trkpt lat="44.24934" lon="0.55609">
        <ele>71.6</ele>
        <time>2026-01-04T15:08:54.337Z</time>
      </trkpt>
      <trkpt lat="44.2493" lon="0.55608">
        <ele>71</ele>
        <time>2026-01-04T15:08:58.337Z</time>
      </trkpt>
      <trkpt lat="44.24925" lon="0.55605">
        <ele>70</ele>
        <time>2026-01-04T15:09:02.337Z</time>
      </trkpt>
      <trkpt lat="44.24916" lon="0.55603">
        <ele>68.7</ele>
        <time>2026-01-04T15:09:10.337Z</time>
      </trkpt>
      <trkpt lat="44.24907" lon="0.55598">
        <ele>66.6</ele>
        <time>2026-01-04T15:09:18.337Z</time>
      </trkpt>
      <trkpt lat="44.24899" lon="0.55591">
        <ele>64.9</ele>
        <time>2026-01-04T15:09:26.337Z</time>
      </trkpt>
      <trkpt lat="44.24889" lon="0.55585">
        <ele>63.2</ele>
        <time>2026-01-04T15:09:34.337Z</time>
      </trkpt>
      <trkpt lat="44.2488" lon="0.55582">
        <ele>62.6</ele>
        <time>2026-01-04T15:09:42.337Z</time>
      </trkpt>
      <trkpt lat="44.24871" lon="0.55581">
        <ele>62.3</ele>
        <time>2026-01-04T15:09:50.337Z</time>
      </trkpt>
      <trkpt lat="44.24861" lon="0.55583">
        <ele>62</ele>
        <time>2026-01-04T15:09:58.337Z</time>
      </trkpt>
      <trkpt lat="44.24859" lon="0.55583">
        <ele>62.1</ele>
        <time>2026-01-04T15:10:00.337Z</time>
      </trkpt>
      <trkpt lat="44.24855" lon="0.55586">
        <ele>62.3</ele>
        <time>2026-01-04T15:10:04.337Z</time>
      </trkpt>
      <trkpt lat="44.24848" lon="0.55594">
        <ele>62.8</ele>
        <time>2026-01-04T15:10:12.337Z</time>
      </trkpt>
      <trkpt lat="44.24836" lon="0.55613">
        <ele>64</ele>
        <time>2026-01-04T15:10:32.337Z</time>
      </trkpt>
      <trkpt lat="44.24827" lon="0.55616">
        <ele>64.8</ele>
        <time>2026-01-04T15:10:40.337Z</time>
      </trkpt>
      <trkpt lat="44.24821" lon="0.55615">
        <ele>65.3</ele>
        <time>2026-01-04T15:10:44.337Z</time>
      </trkpt>
      <trkpt lat="44.24817" lon="0.55613">
        <ele>65.8</ele>
        <time>2026-01-04T15:10:48.337Z</time>
      </trkpt>
      <trkpt lat="44.24808" lon="0.55605">
        <ele>66.4</ele>
        <time>2026-01-04T15:10:56.337Z</time>
      </trkpt>
      <trkpt lat="44.24804" lon="0.55601">
        <ele>66.4</ele>
        <time>2026-01-04T15:11:00.337Z</time>
      </trkpt>
      <trkpt lat="44.248" lon="0.55598">
        <ele>66.7</ele>
        <time>2026-01-04T15:11:04.337Z</time>
      </trkpt>
      <trkpt lat="44.24793" lon="0.55589">
        <ele>67.1</ele>
        <time>2026-01-04T15:11:12.337Z</time>
      </trkpt>
      <trkpt lat="44.24785" lon="0.55582">
        <ele>67.9</ele>
        <time>2026-01-04T15:11:20.337Z</time>
      </trkpt>
      <trkpt lat="44.24764" lon="0.55569">
        <ele>69.5</ele>
        <time>2026-01-04T15:11:40.337Z</time>
      </trkpt>
      <trkpt lat="44.24751" lon="0.55567">
        <ele>70.8</ele>
        <time>2026-01-04T15:11:52.337Z</time>
      </trkpt>
      <trkpt lat="44.24742" lon="0.55569">
        <ele>71.9</ele>
        <time>2026-01-04T15:12:00.337Z</time>
      </trkpt>
      <trkpt lat="44.24725" lon="0.55576">
        <ele>73.8</ele>
        <time>2026-01-04T15:12:16.337Z</time>
      </trkpt>
      <trkpt lat="44.24675" lon="0.55604">
        <ele>77.4</ele>
        <time>2026-01-04T15:13:04.337Z</time>
      </trkpt>
      <trkpt lat="44.24661" lon="0.55617">
        <ele>78.7</ele>
        <time>2026-01-04T15:13:20.337Z</time>
      </trkpt>
      <trkpt lat="44.24647" lon="0.5563">
        <ele>80.2</ele>
        <time>2026-01-04T15:13:36.337Z</time>
      </trkpt>
      <trkpt lat="44.24633" lon="0.55646">
        <ele>81.6</ele>
        <time>2026-01-04T15:13:52.337Z</time>
      </trkpt>
      <trkpt lat="44.24602" lon="0.55684">
        <ele>87.1</ele>
        <time>2026-01-04T15:14:32.337Z</time>
      </trkpt>
      <trkpt lat="44.24586" lon="0.55694">
        <ele>88</ele>
        <time>2026-01-04T15:14:48.337Z</time>
      </trkpt>
      <trkpt lat="44.24579" lon="0.557">
        <ele>89.2</ele>
        <time>2026-01-04T15:15:04.337Z</time>
      </trkpt>
      <trkpt lat="44.24579" lon="0.557">
        <ele>89.4</ele>
        <time>2026-01-04T15:15:20.337Z</time>
      </trkpt>
      <trkpt lat="44.24566" lon="0.55714">
        <ele>92.1</ele>
        <time>2026-01-04T15:15:44.337Z</time>
      </trkpt>
      <trkpt lat="44.24555" lon="0.55729">
        <ele>94.2</ele>
        <time>2026-01-04T15:16:00.337Z</time>
      </trkpt>
      <trkpt lat="44.24554" lon="0.55733">
        <ele>94.8</ele>
        <time>2026-01-04T15:16:04.337Z</time>
      </trkpt>
      <trkpt lat="44.24549" lon="0.55742">
        <ele>95.7</ele>
        <time>2026-01-04T15:16:12.337Z</time>
      </trkpt>
      <trkpt lat="44.24541" lon="0.55766">
        <ele>99.3</ele>
        <time>2026-01-04T15:16:34.337Z</time>
      </trkpt>
      <trkpt lat="44.24535" lon="0.55778">
        <ele>100.8</ele>
        <time>2026-01-04T15:16:46.337Z</time>
      </trkpt>
      <trkpt lat="44.24532" lon="0.55781">
        <ele>101.3</ele>
        <time>2026-01-04T15:16:50.337Z</time>
      </trkpt>
      <trkpt lat="44.24529" lon="0.55783">
        <ele>101.4</ele>
        <time>2026-01-04T15:16:54.337Z</time>
      </trkpt>
      <trkpt lat="44.2452" lon="0.55784">
        <ele>101.3</ele>
        <time>2026-01-04T15:17:02.337Z</time>
      </trkpt>
      <trkpt lat="44.24512" lon="0.55786">
        <ele>101.6</ele>
        <time>2026-01-04T15:17:10.337Z</time>
      </trkpt>
      <trkpt lat="44.24501" lon="0.55785">
        <ele>101.1</ele>
        <time>2026-01-04T15:17:22.337Z</time>
      </trkpt>
      <trkpt lat="44.24475" lon="0.55798">
        <ele>105.6</ele>
        <time>2026-01-04T15:17:54.337Z</time>
      </trkpt>
      <trkpt lat="44.24462" lon="0.55806">
        <ele>107.7</ele>
        <time>2026-01-04T15:18:10.337Z</time>
      </trkpt>
      <trkpt lat="44.24453" lon="0.55813">
        <ele>109.3</ele>
        <time>2026-01-04T15:18:22.337Z</time>
      </trkpt>
      <trkpt lat="44.24448" lon="0.55816">
        <ele>110</ele>
        <time>2026-01-04T15:18:30.337Z</time>
      </trkpt>
      <trkpt lat="44.24438" lon="0.55824">
        <ele>112.3</ele>
        <time>2026-01-04T15:18:46.337Z</time>
      </trkpt>
      <trkpt lat="44.2443" lon="0.55827">
        <ele>113.2</ele>
        <time>2026-01-04T15:18:58.337Z</time>
      </trkpt>
      <trkpt lat="44.24429" lon="0.55825">
        <ele>112.8</ele>
        <time>2026-01-04T15:19:14.337Z</time>
      </trkpt>
      <trkpt lat="44.24429" lon="0.55829">
        <ele>113.7</ele>
        <time>2026-01-04T15:19:30.337Z</time>
      </trkpt>
      <trkpt lat="44.24425" lon="0.55833">
        <ele>115</ele>
        <time>2026-01-04T15:19:46.337Z</time>
      </trkpt>
      <trkpt lat="44.24423" lon="0.55834">
        <ele>115.2</ele>
        <time>2026-01-04T15:19:50.337Z</time>
      </trkpt>
      <trkpt lat="44.2442" lon="0.55838">
        <ele>116.4</ele>
        <time>2026-01-04T15:19:58.337Z</time>
      </trkpt>
      <trkpt lat="44.24418" lon="0.55838">
        <ele>116.4</ele>
        <time>2026-01-04T15:20:02.337Z</time>
      </trkpt>
      <trkpt lat="44.24417" lon="0.5584">
        <ele>116.8</ele>
        <time>2026-01-04T15:20:06.337Z</time>
      </trkpt>
      <trkpt lat="44.24414" lon="0.5584">
        <ele>117</ele>
        <time>2026-01-04T15:20:10.337Z</time>
      </trkpt>
      <trkpt lat="44.24412" lon="0.55839">
        <ele>116.7</ele>
        <time>2026-01-04T15:20:18.337Z</time>
      </trkpt>
      <trkpt lat="44.24411" lon="0.55839">
        <ele>116.9</ele>
        <time>2026-01-04T15:20:34.337Z</time>
      </trkpt>
      <trkpt lat="44.24411" lon="0.55844">
        <ele>118.4</ele>
        <time>2026-01-04T15:21:38.337Z</time>
      </trkpt>
      <trkpt lat="44.2441" lon="0.55845">
        <ele>118.5</ele>
        <time>2026-01-04T15:21:46.337Z</time>
      </trkpt>
      <trkpt lat="44.24409" lon="0.55843">
        <ele>118</ele>
        <time>2026-01-04T15:21:54.337Z</time>
      </trkpt>
      <trkpt lat="44.24409" lon="0.55845">
        <ele>118.5</ele>
        <time>2026-01-04T15:22:10.337Z</time>
      </trkpt>
      <trkpt lat="44.24406" lon="0.55845">
        <ele>118.6</ele>
        <time>2026-01-04T15:22:14.337Z</time>
      </trkpt>
      <trkpt lat="44.24405" lon="0.55847">
        <ele>119.2</ele>
        <time>2026-01-04T15:22:18.337Z</time>
      </trkpt>
      <trkpt lat="44.24396" lon="0.55851">
        <ele>120.8</ele>
        <time>2026-01-04T15:22:26.337Z</time>
      </trkpt>
      <trkpt lat="44.24392" lon="0.55851">
        <ele>120.9</ele>
        <time>2026-01-04T15:22:30.337Z</time>
      </trkpt>
      <trkpt lat="44.24387" lon="0.55855">
        <ele>121.9</ele>
        <time>2026-01-04T15:22:38.337Z</time>
      </trkpt>
      <trkpt lat="44.24381" lon="0.55862">
        <ele>123.4</ele>
        <time>2026-01-04T15:22:46.337Z</time>
      </trkpt>
      <trkpt lat="44.24378" lon="0.5587">
        <ele>125.1</ele>
        <time>2026-01-04T15:22:54.337Z</time>
      </trkpt>
      <trkpt lat="44.24364" lon="0.55881">
        <ele>127</ele>
        <time>2026-01-04T15:23:10.337Z</time>
      </trkpt>
      <trkpt lat="44.2436" lon="0.55882">
        <ele>126.9</ele>
        <time>2026-01-04T15:23:14.337Z</time>
      </trkpt>
      <trkpt lat="44.24359" lon="0.55884">
        <ele>127.4</ele>
        <time>2026-01-04T15:23:16.337Z</time>
      </trkpt>
      <trkpt lat="44.24355" lon="0.55885">
        <ele>127.7</ele>
        <time>2026-01-04T15:23:20.337Z</time>
      </trkpt>
      <trkpt lat="44.24348" lon="0.5589">
        <ele>128.7</ele>
        <time>2026-01-04T15:23:28.337Z</time>
      </trkpt>
      <trkpt lat="44.24337" lon="0.55893">
        <ele>129.7</ele>
        <time>2026-01-04T15:23:44.337Z</time>
      </trkpt>
      <trkpt lat="44.24336" lon="0.55895">
        <ele>130.2</ele>
        <time>2026-01-04T15:23:45.337Z</time>
      </trkpt>
      <trkpt lat="44.24327" lon="0.55896">
        <ele>130.4</ele>
        <time>2026-01-04T15:23:53.337Z</time>
      </trkpt>
      <trkpt lat="44.24324" lon="0.55897">
        <ele>130.9</ele>
        <time>2026-01-04T15:23:57.337Z</time>
      </trkpt>
      <trkpt lat="44.2432" lon="0.55901">
        <ele>132.5</ele>
        <time>2026-01-04T15:24:01.337Z</time>
      </trkpt>
      <trkpt lat="44.24312" lon="0.55905">
        <ele>133.8</ele>
        <time>2026-01-04T15:24:09.337Z</time>
      </trkpt>
      <trkpt lat="44.24281" lon="0.55912">
        <ele>136.7</ele>
        <time>2026-01-04T15:24:41.337Z</time>
      </trkpt>
      <trkpt lat="44.24275" lon="0.55913">
        <ele>137.2</ele>
        <time>2026-01-04T15:24:49.337Z</time>
      </trkpt>
      <trkpt lat="44.24263" lon="0.55922">
        <ele>139.5</ele>
        <time>2026-01-04T15:25:05.337Z</time>
      </trkpt>
      <trkpt lat="44.24208" lon="0.55947">
        <ele>142.2</ele>
        <time>2026-01-04T15:28:53.337Z</time>
      </trkpt>
      <trkpt lat="44.242" lon="0.5595">
        <ele>142.4</ele>
        <time>2026-01-04T15:29:01.337Z</time>
      </trkpt>
      <trkpt lat="44.2419" lon="0.5595">
        <ele>142.4</ele>
        <time>2026-01-04T15:29:11.337Z</time>
      </trkpt>
      <trkpt lat="44.24188" lon="0.55951">
        <ele>142.5</ele>
        <time>2026-01-04T15:29:13.337Z</time>
      </trkpt>
      <trkpt lat="44.2418" lon="0.55952">
        <ele>142.5</ele>
        <time>2026-01-04T15:29:19.337Z</time>
      </trkpt>
      <trkpt lat="44.24164" lon="0.55948">
        <ele>142.4</ele>
        <time>2026-01-04T15:29:31.337Z</time>
      </trkpt>
      <trkpt lat="44.24159" lon="0.55948">
        <ele>142.7</ele>
        <time>2026-01-04T15:29:35.337Z</time>
      </trkpt>
      <trkpt lat="44.24155" lon="0.5595">
        <ele>143.1</ele>
        <time>2026-01-04T15:29:39.337Z</time>
      </trkpt>
      <trkpt lat="44.24145" lon="0.55964">
        <ele>143.9</ele>
        <time>2026-01-04T15:29:51.337Z</time>
      </trkpt>
      <trkpt lat="44.24131" lon="0.55987">
        <ele>144.9</ele>
        <time>2026-01-04T15:30:07.337Z</time>
      </trkpt>
      <trkpt lat="44.24106" lon="0.56025">
        <ele>147.1</ele>
        <time>2026-01-04T15:30:39.337Z</time>
      </trkpt>
      <trkpt lat="44.241" lon="0.56036">
        <ele>148.1</ele>
        <time>2026-01-04T15:30:47.337Z</time>
      </trkpt>
      <trkpt lat="44.24086" lon="0.56054">
        <ele>149</ele>
        <time>2026-01-04T15:31:03.337Z</time>
      </trkpt>
      <trkpt lat="44.24078" lon="0.56062">
        <ele>149.2</ele>
        <time>2026-01-04T15:31:11.337Z</time>
      </trkpt>
      <trkpt lat="44.24055" lon="0.56088">
        <ele>150</ele>
        <time>2026-01-04T15:31:35.337Z</time>
      </trkpt>
      <trkpt lat="44.24046" lon="0.56096">
        <ele>150</ele>
        <time>2026-01-04T15:31:43.337Z</time>
      </trkpt>
      <trkpt lat="44.24014" lon="0.5613">
        <ele>149</ele>
        <time>2026-01-04T15:32:15.337Z</time>
      </trkpt>
      <trkpt lat="44.24" lon="0.56147">
        <ele>147.7</ele>
        <time>2026-01-04T15:32:31.337Z</time>
      </trkpt>
      <trkpt lat="44.23992" lon="0.56155">
        <ele>147.4</ele>
        <time>2026-01-04T15:32:39.337Z</time>
      </trkpt>
      <trkpt lat="44.23963" lon="0.56187">
        <ele>143.6</ele>
        <time>2026-01-04T15:33:11.337Z</time>
      </trkpt>
      <trkpt lat="44.2395" lon="0.56197">
        <ele>141.8</ele>
        <time>2026-01-04T15:33:23.337Z</time>
      </trkpt>
      <trkpt lat="44.23944" lon="0.56207">
        <ele>139.3</ele>
        <time>2026-01-04T15:33:31.337Z</time>
      </trkpt>
      <trkpt lat="44.23947" lon="0.56217">
        <ele>137.7</ele>
        <time>2026-01-04T15:33:38.337Z</time>
      </trkpt>
      <trkpt lat="44.23949" lon="0.56218">
        <ele>137.9</ele>
        <time>2026-01-04T15:33:40.337Z</time>
      </trkpt>
      <trkpt lat="44.23956" lon="0.56233">
        <ele>135.9</ele>
        <time>2026-01-04T15:33:54.337Z</time>
      </trkpt>
      <trkpt lat="44.23957" lon="0.56233">
        <ele>136.3</ele>
        <time>2026-01-04T15:33:58.337Z</time>
      </trkpt>
      <trkpt lat="44.23963" lon="0.56245">
        <ele>134.6</ele>
        <time>2026-01-04T15:34:18.337Z</time>
      </trkpt>
      <trkpt lat="44.23966" lon="0.56249">
        <ele>134.5</ele>
        <time>2026-01-04T15:34:22.337Z</time>
      </trkpt>
      <trkpt lat="44.23968" lon="0.56255">
        <ele>133.9</ele>
        <time>2026-01-04T15:34:26.337Z</time>
      </trkpt>
      <trkpt lat="44.23969" lon="0.56261">
        <ele>133</ele>
        <time>2026-01-04T15:34:30.337Z</time>
      </trkpt>
      <trkpt lat="44.23972" lon="0.56271">
        <ele>132.3</ele>
        <time>2026-01-04T15:34:38.337Z</time>
      </trkpt>
      <trkpt lat="44.23975" lon="0.56286">
        <ele>131.5</ele>
        <time>2026-01-04T15:34:46.337Z</time>
      </trkpt>
      <trkpt lat="44.23974" lon="0.56294">
        <ele>130</ele>
        <time>2026-01-04T15:34:50.337Z</time>
      </trkpt>
      <trkpt lat="44.23972" lon="0.563">
        <ele>128.4</ele>
        <time>2026-01-04T15:34:54.337Z</time>
      </trkpt>
      <trkpt lat="44.23972" lon="0.56306">
        <ele>127.9</ele>
        <time>2026-01-04T15:34:58.337Z</time>
      </trkpt>
      <trkpt lat="44.23969" lon="0.56319">
        <ele>127.2</ele>
        <time>2026-01-04T15:35:06.337Z</time>
      </trkpt>
      <trkpt lat="44.23965" lon="0.56332">
        <ele>125.8</ele>
        <time>2026-01-04T15:35:14.337Z</time>
      </trkpt>
      <trkpt lat="44.23962" lon="0.56355">
        <ele>126.1</ele>
        <time>2026-01-04T15:35:28.337Z</time>
      </trkpt>
      <trkpt lat="44.23957" lon="0.56368">
        <ele>124.5</ele>
        <time>2026-01-04T15:35:36.337Z</time>
      </trkpt>
      <trkpt lat="44.23954" lon="0.56382">
        <ele>124.1</ele>
        <time>2026-01-04T15:35:44.337Z</time>
      </trkpt>
      <trkpt lat="44.23948" lon="0.56398">
        <ele>122.6</ele>
        <time>2026-01-04T15:35:52.337Z</time>
      </trkpt>
      <trkpt lat="44.2393" lon="0.56432">
        <ele>121.6</ele>
        <time>2026-01-04T15:36:16.337Z</time>
      </trkpt>
      <trkpt lat="44.23916" lon="0.56453">
        <ele>120.2</ele>
        <time>2026-01-04T15:36:32.337Z</time>
      </trkpt>
      <trkpt lat="44.23898" lon="0.56487">
        <ele>117.7</ele>
        <time>2026-01-04T15:36:56.337Z</time>
      </trkpt>
      <trkpt lat="44.23885" lon="0.56522">
        <ele>114.5</ele>
        <time>2026-01-04T15:37:20.337Z</time>
      </trkpt>
      <trkpt lat="44.23882" lon="0.56534">
        <ele>114.4</ele>
        <time>2026-01-04T15:37:28.337Z</time>
      </trkpt>
      <trkpt lat="44.23877" lon="0.56544">
        <ele>113.3</ele>
        <time>2026-01-04T15:37:36.337Z</time>
      </trkpt>
      <trkpt lat="44.23873" lon="0.5655">
        <ele>112.2</ele>
        <time>2026-01-04T15:37:40.337Z</time>
      </trkpt>
      <trkpt lat="44.23869" lon="0.56552">
        <ele>110.8</ele>
        <time>2026-01-04T15:37:44.337Z</time>
      </trkpt>
      <trkpt lat="44.23864" lon="0.56552">
        <ele>109.1</ele>
        <time>2026-01-04T15:37:48.337Z</time>
      </trkpt>
      <trkpt lat="44.23851" lon="0.56543">
        <ele>105.1</ele>
        <time>2026-01-04T15:38:00.337Z</time>
      </trkpt>
      <trkpt lat="44.23843" lon="0.56533">
        <ele>102.9</ele>
        <time>2026-01-04T15:38:08.337Z</time>
      </trkpt>
      <trkpt lat="44.23839" lon="0.56521">
        <ele>100.8</ele>
        <time>2026-01-04T15:38:16.337Z</time>
      </trkpt>
      <trkpt lat="44.23836" lon="0.56502">
        <ele>98.2</ele>
        <time>2026-01-04T15:38:28.337Z</time>
      </trkpt>
      <trkpt lat="44.2384" lon="0.56489">
        <ele>97.8</ele>
        <time>2026-01-04T15:38:38.337Z</time>
      </trkpt>
      <trkpt lat="44.2384" lon="0.56491">
        <ele>98.2</ele>
        <time>2026-01-04T15:38:42.337Z</time>
      </trkpt>
      <trkpt lat="44.23841" lon="0.56486">
        <ele>98</ele>
        <time>2026-01-04T15:38:44.337Z</time>
      </trkpt>
      <trkpt lat="44.2384" lon="0.56477">
        <ele>96.4</ele>
        <time>2026-01-04T15:38:48.337Z</time>
      </trkpt>
      <trkpt lat="44.23842" lon="0.56437">
        <ele>92</ele>
        <time>2026-01-04T15:39:12.337Z</time>
      </trkpt>
      <trkpt lat="44.23841" lon="0.56422">
        <ele>90.4</ele>
        <time>2026-01-04T15:39:20.337Z</time>
      </trkpt>
      <trkpt lat="44.23836" lon="0.56409">
        <ele>88.5</ele>
        <time>2026-01-04T15:39:28.337Z</time>
      </trkpt>
      <trkpt lat="44.23832" lon="0.56405">
        <ele>87.8</ele>
        <time>2026-01-04T15:39:32.337Z</time>
      </trkpt>
      <trkpt lat="44.23824" lon="0.564">
        <ele>86.8</ele>
        <time>2026-01-04T15:39:40.337Z</time>
      </trkpt>
      <trkpt lat="44.23818" lon="0.564">
        <ele>86.2</ele>
        <time>2026-01-04T15:39:44.337Z</time>
      </trkpt>
      <trkpt lat="44.23811" lon="0.56403">
        <ele>85.2</ele>
        <time>2026-01-04T15:39:50.337Z</time>
      </trkpt>
      <trkpt lat="44.23796" lon="0.56416">
        <ele>82.6</ele>
        <time>2026-01-04T15:40:06.337Z</time>
      </trkpt>
      <trkpt lat="44.2378" lon="0.56433">
        <ele>80.9</ele>
        <time>2026-01-04T15:40:22.337Z</time>
      </trkpt>
      <trkpt lat="44.23773" lon="0.56439">
        <ele>79.9</ele>
        <time>2026-01-04T15:40:30.337Z</time>
      </trkpt>
      <trkpt lat="44.2377" lon="0.56444">
        <ele>79.6</ele>
        <time>2026-01-04T15:40:34.337Z</time>
      </trkpt>
      <trkpt lat="44.23762" lon="0.56454">
        <ele>78.6</ele>
        <time>2026-01-04T15:40:42.337Z</time>
      </trkpt>
      <trkpt lat="44.23753" lon="0.56461">
        <ele>77.7</ele>
        <time>2026-01-04T15:40:50.337Z</time>
      </trkpt>
      <trkpt lat="44.23734" lon="0.56481">
        <ele>74.3</ele>
        <time>2026-01-04T15:41:10.337Z</time>
      </trkpt>
      <trkpt lat="44.23729" lon="0.56484">
        <ele>73.1</ele>
        <time>2026-01-04T15:41:14.337Z</time>
      </trkpt>
      <trkpt lat="44.23723" lon="0.5649">
        <ele>71.4</ele>
        <time>2026-01-04T15:41:22.337Z</time>
      </trkpt>
      <trkpt lat="44.23713" lon="0.56493">
        <ele>69</ele>
        <time>2026-01-04T15:41:30.337Z</time>
      </trkpt>
      <trkpt lat="44.23709" lon="0.56494">
        <ele>67.9</ele>
        <time>2026-01-04T15:41:34.337Z</time>
      </trkpt>
      <trkpt lat="44.23702" lon="0.56491">
        <ele>66.4</ele>
        <time>2026-01-04T15:41:40.337Z</time>
      </trkpt>
      <trkpt lat="44.23697" lon="0.56484">
        <ele>65.7</ele>
        <time>2026-01-04T15:41:46.337Z</time>
      </trkpt>
      <trkpt lat="44.23688" lon="0.5648">
        <ele>64.4</ele>
        <time>2026-01-04T15:41:54.337Z</time>
      </trkpt>
      <trkpt lat="44.23682" lon="0.56474">
        <ele>62.9</ele>
        <time>2026-01-04T15:42:00.337Z</time>
      </trkpt>
      <trkpt lat="44.23671" lon="0.56469">
        <ele>60.4</ele>
        <time>2026-01-04T15:42:08.337Z</time>
      </trkpt>
      <trkpt lat="44.23668" lon="0.56466">
        <ele>59.9</ele>
        <time>2026-01-04T15:42:12.337Z</time>
      </trkpt>
      <trkpt lat="44.23655" lon="0.56461">
        <ele>59.6</ele>
        <time>2026-01-04T15:42:24.337Z</time>
      </trkpt>
      <trkpt lat="44.23647" lon="0.56461">
        <ele>59.3</ele>
        <time>2026-01-04T15:42:32.337Z</time>
      </trkpt>
      <trkpt lat="44.23643" lon="0.56462">
        <ele>59</ele>
        <time>2026-01-04T15:42:36.337Z</time>
      </trkpt>
      <trkpt lat="44.23637" lon="0.56461">
        <ele>58.7</ele>
        <time>2026-01-04T15:42:40.337Z</time>
      </trkpt>
      <trkpt lat="44.2363" lon="0.56463">
        <ele>58.2</ele>
        <time>2026-01-04T15:42:46.337Z</time>
      </trkpt>
      <trkpt lat="44.23614" lon="0.56459">
        <ele>57.2</ele>
        <time>2026-01-04T15:43:02.337Z</time>
      </trkpt>
      <trkpt lat="44.2361" lon="0.56459">
        <ele>56.9</ele>
        <time>2026-01-04T15:43:06.337Z</time>
      </trkpt>
      <trkpt lat="44.23604" lon="0.5646">
        <ele>56.5</ele>
        <time>2026-01-04T15:43:10.337Z</time>
      </trkpt>
      <trkpt lat="44.23596" lon="0.56459">
        <ele>56</ele>
        <time>2026-01-04T15:43:16.337Z</time>
      </trkpt>
      <trkpt lat="44.23592" lon="0.56455">
        <ele>55.5</ele>
        <time>2026-01-04T15:43:20.337Z</time>
      </trkpt>
      <trkpt lat="44.23589" lon="0.56456">
        <ele>55.3</ele>
        <time>2026-01-04T15:43:22.337Z</time>
      </trkpt>
      <trkpt lat="44.23579" lon="0.56451">
        <ele>54.2</ele>
        <time>2026-01-04T15:43:30.337Z</time>
      </trkpt>
      <trkpt lat="44.23569" lon="0.56448">
        <ele>53.4</ele>
        <time>2026-01-04T15:43:38.337Z</time>
      </trkpt>
      <trkpt lat="44.23565" lon="0.56446">
        <ele>52.9</ele>
        <time>2026-01-04T15:43:42.337Z</time>
      </trkpt>
      <trkpt lat="44.23556" lon="0.56449">
        <ele>52.6</ele>
        <time>2026-01-04T15:43:50.337Z</time>
      </trkpt>
      <trkpt lat="44.23546" lon="0.56453">
        <ele>52.1</ele>
        <time>2026-01-04T15:43:58.337Z</time>
      </trkpt>
      <trkpt lat="44.23539" lon="0.56459">
        <ele>51.9</ele>
        <time>2026-01-04T15:44:06.337Z</time>
      </trkpt>
      <trkpt lat="44.23522" lon="0.56475">
        <ele>51.4</ele>
        <time>2026-01-04T15:44:22.337Z</time>
      </trkpt>
      <trkpt lat="44.23515" lon="0.56478">
        <ele>50.7</ele>
        <time>2026-01-04T15:44:28.337Z</time>
      </trkpt>
      <trkpt lat="44.23512" lon="0.56478">
        <ele>50.2</ele>
        <time>2026-01-04T15:44:30.337Z</time>
      </trkpt>
      <trkpt lat="44.23505" lon="0.5648">
        <ele>49.4</ele>
        <time>2026-01-04T15:44:36.337Z</time>
      </trkpt>
      <trkpt lat="44.23496" lon="0.5648">
        <ele>48.4</ele>
        <time>2026-01-04T15:44:44.337Z</time>
      </trkpt>
      <trkpt lat="44.23487" lon="0.56477">
        <ele>47.7</ele>
        <time>2026-01-04T15:44:52.337Z</time>
      </trkpt>
      <trkpt lat="44.23474" lon="0.5647">
        <ele>47</ele>
        <time>2026-01-04T15:45:04.337Z</time>
      </trkpt>
      <trkpt lat="44.23466" lon="0.56467">
        <ele>46.6</ele>
        <time>2026-01-04T15:45:12.337Z</time>
      </trkpt>
      <trkpt lat="44.23463" lon="0.56465">
        <ele>46.4</ele>
        <time>2026-01-04T15:45:16.337Z</time>
      </trkpt>
      <trkpt lat="44.2346" lon="0.56461">
        <ele>46.1</ele>
        <time>2026-01-04T15:45:20.337Z</time>
      </trkpt>
      <trkpt lat="44.23456" lon="0.56457">
        <ele>45.9</ele>
        <time>2026-01-04T15:45:24.337Z</time>
      </trkpt>
      <trkpt lat="44.23447" lon="0.56453">
        <ele>45.4</ele>
        <time>2026-01-04T15:45:32.337Z</time>
      </trkpt>
      <trkpt lat="44.23443" lon="0.56456">
        <ele>45.3</ele>
        <time>2026-01-04T15:45:36.337Z</time>
      </trkpt>
      <trkpt lat="44.23433" lon="0.56464">
        <ele>45.2</ele>
        <time>2026-01-04T15:45:52.337Z</time>
      </trkpt>
      <trkpt lat="44.2343" lon="0.56464">
        <ele>45</ele>
        <time>2026-01-04T15:45:56.337Z</time>
      </trkpt>
      <trkpt lat="44.23427" lon="0.56466">
        <ele>45</ele>
        <time>2026-01-04T15:46:00.337Z</time>
      </trkpt>
      <trkpt lat="44.23421" lon="0.56473">
        <ele>45.1</ele>
        <time>2026-01-04T15:46:08.337Z</time>
      </trkpt>
      <trkpt lat="44.23416" lon="0.56482">
        <ele>45</ele>
        <time>2026-01-04T15:46:16.337Z</time>
      </trkpt>
      <trkpt lat="44.23415" lon="0.56483">
        <ele>44.9</ele>
        <time>2026-01-04T15:46:18.337Z</time>
      </trkpt>
      <trkpt lat="44.23406" lon="0.56485">
        <ele>44.4</ele>
        <time>2026-01-04T15:46:26.337Z</time>
      </trkpt>
      <trkpt lat="44.23398" lon="0.56484">
        <ele>44</ele>
        <time>2026-01-04T16:11:18.337Z</time>
      </trkpt>
    </trkseg>
  </trk>
</gpx>